<?xml version="1.0" encoding="UTF-8" standalone="no" ?>
<gpx xmlns="http://www.topografix.com/GPX/1/1" xmlns:xsi="http://www.w3.org/2001/XMLSchema-instance" xsi:schemaLocation="http://www.topografix.com/GPX/1/1 http://www.topografix.com/GPX/1/1/gpx.xsd" version="1.1" creator="VisuGPX - https://www.visugpx.com">
  <metadata>
    <name>secteur Saverne - Dabo - Petite Pierre</name>
  </metadata>
  <trk>
    <name><![CDATA[secteur Saverne - Dabo - Petite Pierre_13]]></name>
    <trkseg>
      <trkpt lat="48.67305" lon="7.25222">
        <ele>487.2</ele>
        <time>2020-08-12T06:35:47Z</time>
      </trkpt>
      <trkpt lat="48.67305" lon="7.25222">
        <ele>487.2</ele>
        <time>2020-08-12T06:35:47Z</time>
      </trkpt>
      <trkpt lat="48.67305" lon="7.25222">
        <ele>487.2</ele>
        <time>2020-08-12T06:35:47Z</time>
      </trkpt>
      <trkpt lat="48.67305" lon="7.25222">
        <ele>487.2</ele>
        <time>2020-08-12T06:35:47Z</time>
      </trkpt>
      <trkpt lat="48.67305" lon="7.25222">
        <ele>487.2</ele>
        <time>2020-08-12T06:35:47Z</time>
      </trkpt>
      <trkpt lat="48.67305" lon="7.25222">
        <ele>487.2</ele>
        <time>2020-08-12T06:35:47Z</time>
      </trkpt>
      <trkpt lat="48.67305" lon="7.25222">
        <ele>487.2</ele>
        <time>2020-08-12T06:35:47Z</time>
      </trkpt>
      <trkpt lat="48.67305" lon="7.25222">
        <ele>487.2</ele>
        <time>2020-08-12T06:35:47Z</time>
      </trkpt>
      <trkpt lat="48.673" lon="7.25221">
        <ele>486.7</ele>
        <time>2020-08-12T06:35:49Z</time>
      </trkpt>
      <trkpt lat="48.67295" lon="7.25219">
        <ele>486.5</ele>
        <time>2020-08-12T06:35:53Z</time>
      </trkpt>
      <trkpt lat="48.6729" lon="7.25219">
        <ele>483.8</ele>
        <time>2020-08-12T06:36:13Z</time>
      </trkpt>
      <trkpt lat="48.67286" lon="7.25217">
        <ele>481.4</ele>
        <time>2020-08-12T06:36:20Z</time>
      </trkpt>
      <trkpt lat="48.67281" lon="7.25217">
        <ele>480.7</ele>
        <time>2020-08-12T06:36:22Z</time>
      </trkpt>
      <trkpt lat="48.67276" lon="7.25219">
        <ele>480.5</ele>
        <time>2020-08-12T06:36:24Z</time>
      </trkpt>
      <trkpt lat="48.67271" lon="7.25222">
        <ele>481.8</ele>
        <time>2020-08-12T06:36:26Z</time>
      </trkpt>
      <trkpt lat="48.67265" lon="7.25226">
        <ele>482.5</ele>
        <time>2020-08-12T06:36:28Z</time>
      </trkpt>
      <trkpt lat="48.67256" lon="7.25235">
        <ele>482.3</ele>
        <time>2020-08-12T06:36:30Z</time>
      </trkpt>
      <trkpt lat="48.67247" lon="7.25244">
        <ele>482.2</ele>
        <time>2020-08-12T06:36:32Z</time>
      </trkpt>
      <trkpt lat="48.67239" lon="7.2525">
        <ele>482</ele>
        <time>2020-08-12T06:36:34Z</time>
      </trkpt>
      <trkpt lat="48.6723" lon="7.25254">
        <ele>481.6</ele>
        <time>2020-08-12T06:36:36Z</time>
      </trkpt>
      <trkpt lat="48.67219" lon="7.25258">
        <ele>480.4</ele>
        <time>2020-08-12T06:36:38Z</time>
      </trkpt>
      <trkpt lat="48.67209" lon="7.25263">
        <ele>478.2</ele>
        <time>2020-08-12T06:36:40Z</time>
      </trkpt>
      <trkpt lat="48.67199" lon="7.2527">
        <ele>476.6</ele>
        <time>2020-08-12T06:36:42Z</time>
      </trkpt>
      <trkpt lat="48.67191" lon="7.25276">
        <ele>474.9</ele>
        <time>2020-08-12T06:36:44Z</time>
      </trkpt>
      <trkpt lat="48.67182" lon="7.25281">
        <ele>473.8</ele>
        <time>2020-08-12T06:36:46Z</time>
      </trkpt>
      <trkpt lat="48.67175" lon="7.25286">
        <ele>472.8</ele>
        <time>2020-08-12T06:36:48Z</time>
      </trkpt>
      <trkpt lat="48.67168" lon="7.25289">
        <ele>472.3</ele>
        <time>2020-08-12T06:36:50Z</time>
      </trkpt>
      <trkpt lat="48.67163" lon="7.25289">
        <ele>471.1</ele>
        <time>2020-08-12T06:36:53Z</time>
      </trkpt>
      <trkpt lat="48.67167" lon="7.25284">
        <ele>470.7</ele>
        <time>2020-08-12T06:36:58Z</time>
      </trkpt>
      <trkpt lat="48.67171" lon="7.25279">
        <ele>470.5</ele>
        <time>2020-08-12T06:37:00Z</time>
      </trkpt>
      <trkpt lat="48.67177" lon="7.25272">
        <ele>470.9</ele>
        <time>2020-08-12T06:37:02Z</time>
      </trkpt>
      <trkpt lat="48.67183" lon="7.25263">
        <ele>470.5</ele>
        <time>2020-08-12T06:37:04Z</time>
      </trkpt>
      <trkpt lat="48.67189" lon="7.25255">
        <ele>470.8</ele>
        <time>2020-08-12T06:37:06Z</time>
      </trkpt>
      <trkpt lat="48.67194" lon="7.25246">
        <ele>471.2</ele>
        <time>2020-08-12T06:37:08Z</time>
      </trkpt>
      <trkpt lat="48.67199" lon="7.25239">
        <ele>471.1</ele>
        <time>2020-08-12T06:37:10Z</time>
      </trkpt>
      <trkpt lat="48.67204" lon="7.2523">
        <ele>471</ele>
        <time>2020-08-12T06:37:12Z</time>
      </trkpt>
      <trkpt lat="48.67209" lon="7.25223">
        <ele>471.2</ele>
        <time>2020-08-12T06:37:14Z</time>
      </trkpt>
      <trkpt lat="48.67215" lon="7.25212">
        <ele>471.8</ele>
        <time>2020-08-12T06:37:16Z</time>
      </trkpt>
      <trkpt lat="48.67222" lon="7.25201">
        <ele>472.1</ele>
        <time>2020-08-12T06:37:18Z</time>
      </trkpt>
      <trkpt lat="48.6723" lon="7.25189">
        <ele>472</ele>
        <time>2020-08-12T06:37:20Z</time>
      </trkpt>
      <trkpt lat="48.67238" lon="7.25178">
        <ele>471.8</ele>
        <time>2020-08-12T06:37:22Z</time>
      </trkpt>
      <trkpt lat="48.67245" lon="7.2517">
        <ele>472.6</ele>
        <time>2020-08-12T06:37:24Z</time>
      </trkpt>
      <trkpt lat="48.67252" lon="7.25162">
        <ele>472.7</ele>
        <time>2020-08-12T06:37:26Z</time>
      </trkpt>
      <trkpt lat="48.6726" lon="7.25153">
        <ele>472.9</ele>
        <time>2020-08-12T06:37:28Z</time>
      </trkpt>
      <trkpt lat="48.67268" lon="7.25144">
        <ele>473.3</ele>
        <time>2020-08-12T06:37:30Z</time>
      </trkpt>
      <trkpt lat="48.67275" lon="7.25136">
        <ele>472.6</ele>
        <time>2020-08-12T06:37:32Z</time>
      </trkpt>
      <trkpt lat="48.67283" lon="7.25127">
        <ele>472.1</ele>
        <time>2020-08-12T06:37:34Z</time>
      </trkpt>
      <trkpt lat="48.67291" lon="7.25118">
        <ele>471.2</ele>
        <time>2020-08-12T06:37:36Z</time>
      </trkpt>
      <trkpt lat="48.67298" lon="7.25112">
        <ele>471.1</ele>
        <time>2020-08-12T06:37:38Z</time>
      </trkpt>
      <trkpt lat="48.67307" lon="7.25104">
        <ele>470.6</ele>
        <time>2020-08-12T06:37:40Z</time>
      </trkpt>
      <trkpt lat="48.67316" lon="7.25097">
        <ele>470.3</ele>
        <time>2020-08-12T06:37:42Z</time>
      </trkpt>
      <trkpt lat="48.67324" lon="7.2509">
        <ele>470.3</ele>
        <time>2020-08-12T06:37:44Z</time>
      </trkpt>
      <trkpt lat="48.67332" lon="7.25084">
        <ele>469.9</ele>
        <time>2020-08-12T06:37:46Z</time>
      </trkpt>
      <trkpt lat="48.67339" lon="7.25079">
        <ele>469.5</ele>
        <time>2020-08-12T06:37:48Z</time>
      </trkpt>
      <trkpt lat="48.67347" lon="7.25073">
        <ele>469.4</ele>
        <time>2020-08-12T06:37:50Z</time>
      </trkpt>
      <trkpt lat="48.67355" lon="7.25066">
        <ele>469.4</ele>
        <time>2020-08-12T06:37:52Z</time>
      </trkpt>
      <trkpt lat="48.67363" lon="7.2506">
        <ele>469.3</ele>
        <time>2020-08-12T06:37:54Z</time>
      </trkpt>
      <trkpt lat="48.67372" lon="7.25053">
        <ele>470</ele>
        <time>2020-08-12T06:37:56Z</time>
      </trkpt>
      <trkpt lat="48.67381" lon="7.25044">
        <ele>469.9</ele>
        <time>2020-08-12T06:37:58Z</time>
      </trkpt>
      <trkpt lat="48.67388" lon="7.25036">
        <ele>470.1</ele>
        <time>2020-08-12T06:38:00Z</time>
      </trkpt>
      <trkpt lat="48.67394" lon="7.25028">
        <ele>470.1</ele>
        <time>2020-08-12T06:38:02Z</time>
      </trkpt>
      <trkpt lat="48.67401" lon="7.25021">
        <ele>470.2</ele>
        <time>2020-08-12T06:38:04Z</time>
      </trkpt>
      <trkpt lat="48.67407" lon="7.25016">
        <ele>470.8</ele>
        <time>2020-08-12T06:38:06Z</time>
      </trkpt>
      <trkpt lat="48.67414" lon="7.25009">
        <ele>471.1</ele>
        <time>2020-08-12T06:38:08Z</time>
      </trkpt>
      <trkpt lat="48.6742" lon="7.25001">
        <ele>471.1</ele>
        <time>2020-08-12T06:38:10Z</time>
      </trkpt>
      <trkpt lat="48.67428" lon="7.24992">
        <ele>470.4</ele>
        <time>2020-08-12T06:38:12Z</time>
      </trkpt>
      <trkpt lat="48.67435" lon="7.24985">
        <ele>470</ele>
        <time>2020-08-12T06:38:14Z</time>
      </trkpt>
      <trkpt lat="48.67441" lon="7.24977">
        <ele>470.3</ele>
        <time>2020-08-12T06:38:16Z</time>
      </trkpt>
      <trkpt lat="48.67448" lon="7.24969">
        <ele>470.4</ele>
        <time>2020-08-12T06:38:18Z</time>
      </trkpt>
      <trkpt lat="48.67455" lon="7.24959">
        <ele>469.4</ele>
        <time>2020-08-12T06:38:20Z</time>
      </trkpt>
      <trkpt lat="48.67462" lon="7.24949">
        <ele>469.2</ele>
        <time>2020-08-12T06:38:22Z</time>
      </trkpt>
      <trkpt lat="48.67468" lon="7.24938">
        <ele>468.9</ele>
        <time>2020-08-12T06:38:24Z</time>
      </trkpt>
      <trkpt lat="48.67474" lon="7.24929">
        <ele>468.8</ele>
        <time>2020-08-12T06:38:26Z</time>
      </trkpt>
      <trkpt lat="48.67478" lon="7.24922">
        <ele>468.7</ele>
        <time>2020-08-12T06:38:28Z</time>
      </trkpt>
      <trkpt lat="48.67483" lon="7.24915">
        <ele>468.4</ele>
        <time>2020-08-12T06:38:31Z</time>
      </trkpt>
      <trkpt lat="48.67487" lon="7.2491">
        <ele>467.6</ele>
        <time>2020-08-12T06:38:38Z</time>
      </trkpt>
      <trkpt lat="48.67487" lon="7.24903">
        <ele>469.8</ele>
        <time>2020-08-12T06:39:30Z</time>
      </trkpt>
      <trkpt lat="48.6749" lon="7.24897">
        <ele>469.4</ele>
        <time>2020-08-12T06:39:43Z</time>
      </trkpt>
      <trkpt lat="48.67493" lon="7.24889">
        <ele>468.4</ele>
        <time>2020-08-12T06:39:46Z</time>
      </trkpt>
      <trkpt lat="48.67494" lon="7.24882">
        <ele>468.7</ele>
        <time>2020-08-12T06:40:03Z</time>
      </trkpt>
      <trkpt lat="48.67495" lon="7.24875">
        <ele>468.5</ele>
        <time>2020-08-12T06:40:07Z</time>
      </trkpt>
      <trkpt lat="48.67495" lon="7.24867">
        <ele>468.2</ele>
        <time>2020-08-12T06:40:10Z</time>
      </trkpt>
      <trkpt lat="48.67495" lon="7.24858">
        <ele>467.5</ele>
        <time>2020-08-12T06:40:12Z</time>
      </trkpt>
      <trkpt lat="48.67494" lon="7.2485">
        <ele>466.8</ele>
        <time>2020-08-12T06:40:14Z</time>
      </trkpt>
      <trkpt lat="48.67493" lon="7.24843">
        <ele>466.5</ele>
        <time>2020-08-12T06:40:16Z</time>
      </trkpt>
      <trkpt lat="48.67492" lon="7.24836">
        <ele>466</ele>
        <time>2020-08-12T06:40:18Z</time>
      </trkpt>
      <trkpt lat="48.6749" lon="7.24829">
        <ele>465.4</ele>
        <time>2020-08-12T06:40:20Z</time>
      </trkpt>
      <trkpt lat="48.67489" lon="7.2482">
        <ele>463.1</ele>
        <time>2020-08-12T06:40:23Z</time>
      </trkpt>
      <trkpt lat="48.67489" lon="7.24812">
        <ele>460.9</ele>
        <time>2020-08-12T06:40:25Z</time>
      </trkpt>
      <trkpt lat="48.67489" lon="7.24804">
        <ele>458.6</ele>
        <time>2020-08-12T06:40:27Z</time>
      </trkpt>
      <trkpt lat="48.67487" lon="7.24795">
        <ele>455.7</ele>
        <time>2020-08-12T06:40:29Z</time>
      </trkpt>
      <trkpt lat="48.67485" lon="7.24786">
        <ele>454.1</ele>
        <time>2020-08-12T06:40:31Z</time>
      </trkpt>
      <trkpt lat="48.67484" lon="7.24778">
        <ele>452.7</ele>
        <time>2020-08-12T06:40:34Z</time>
      </trkpt>
      <trkpt lat="48.67483" lon="7.24771">
        <ele>448.5</ele>
        <time>2020-08-12T06:40:40Z</time>
      </trkpt>
      <trkpt lat="48.67482" lon="7.24763">
        <ele>447.5</ele>
        <time>2020-08-12T06:40:42Z</time>
      </trkpt>
      <trkpt lat="48.6748" lon="7.24752">
        <ele>447.1</ele>
        <time>2020-08-12T06:40:44Z</time>
      </trkpt>
      <trkpt lat="48.67479" lon="7.24741">
        <ele>450.9</ele>
        <time>2020-08-12T06:40:46Z</time>
      </trkpt>
      <trkpt lat="48.67479" lon="7.24733">
        <ele>451.2</ele>
        <time>2020-08-12T06:40:48Z</time>
      </trkpt>
      <trkpt lat="48.6748" lon="7.24725">
        <ele>451.9</ele>
        <time>2020-08-12T06:40:50Z</time>
      </trkpt>
      <trkpt lat="48.67481" lon="7.24715">
        <ele>452</ele>
        <time>2020-08-12T06:40:52Z</time>
      </trkpt>
      <trkpt lat="48.67482" lon="7.24705">
        <ele>451.9</ele>
        <time>2020-08-12T06:40:54Z</time>
      </trkpt>
      <trkpt lat="48.67483" lon="7.24695">
        <ele>451.4</ele>
        <time>2020-08-12T06:40:56Z</time>
      </trkpt>
      <trkpt lat="48.67484" lon="7.24684">
        <ele>451.1</ele>
        <time>2020-08-12T06:40:58Z</time>
      </trkpt>
      <trkpt lat="48.67484" lon="7.24672">
        <ele>454.5</ele>
        <time>2020-08-12T06:41:00Z</time>
      </trkpt>
      <trkpt lat="48.6748" lon="7.24658">
        <ele>454.4</ele>
        <time>2020-08-12T06:41:02Z</time>
      </trkpt>
      <trkpt lat="48.67477" lon="7.24645">
        <ele>454.5</ele>
        <time>2020-08-12T06:41:04Z</time>
      </trkpt>
      <trkpt lat="48.67477" lon="7.24633">
        <ele>454</ele>
        <time>2020-08-12T06:41:06Z</time>
      </trkpt>
      <trkpt lat="48.67477" lon="7.24619">
        <ele>453.4</ele>
        <time>2020-08-12T06:41:08Z</time>
      </trkpt>
      <trkpt lat="48.67478" lon="7.24603">
        <ele>453</ele>
        <time>2020-08-12T06:41:10Z</time>
      </trkpt>
      <trkpt lat="48.6748" lon="7.24584">
        <ele>452.2</ele>
        <time>2020-08-12T06:41:12Z</time>
      </trkpt>
      <trkpt lat="48.67485" lon="7.24565">
        <ele>450.9</ele>
        <time>2020-08-12T06:41:14Z</time>
      </trkpt>
      <trkpt lat="48.6749" lon="7.24548">
        <ele>449.5</ele>
        <time>2020-08-12T06:41:16Z</time>
      </trkpt>
      <trkpt lat="48.67493" lon="7.24531">
        <ele>448.4</ele>
        <time>2020-08-12T06:41:18Z</time>
      </trkpt>
      <trkpt lat="48.67497" lon="7.24514">
        <ele>447.7</ele>
        <time>2020-08-12T06:41:20Z</time>
      </trkpt>
      <trkpt lat="48.67502" lon="7.24498">
        <ele>446.6</ele>
        <time>2020-08-12T06:41:22Z</time>
      </trkpt>
      <trkpt lat="48.67507" lon="7.24482">
        <ele>445.4</ele>
        <time>2020-08-12T06:41:24Z</time>
      </trkpt>
      <trkpt lat="48.67512" lon="7.24467">
        <ele>444</ele>
        <time>2020-08-12T06:41:26Z</time>
      </trkpt>
      <trkpt lat="48.67515" lon="7.24449">
        <ele>443.2</ele>
        <time>2020-08-12T06:41:28Z</time>
      </trkpt>
      <trkpt lat="48.67517" lon="7.24432">
        <ele>442.2</ele>
        <time>2020-08-12T06:41:30Z</time>
      </trkpt>
      <trkpt lat="48.67519" lon="7.24416">
        <ele>441.9</ele>
        <time>2020-08-12T06:41:32Z</time>
      </trkpt>
      <trkpt lat="48.67522" lon="7.24397">
        <ele>442.2</ele>
        <time>2020-08-12T06:41:34Z</time>
      </trkpt>
      <trkpt lat="48.67525" lon="7.24381">
        <ele>442</ele>
        <time>2020-08-12T06:41:36Z</time>
      </trkpt>
      <trkpt lat="48.67529" lon="7.24366">
        <ele>440.7</ele>
        <time>2020-08-12T06:41:38Z</time>
      </trkpt>
      <trkpt lat="48.67532" lon="7.24353">
        <ele>445.9</ele>
        <time>2020-08-12T06:41:40Z</time>
      </trkpt>
      <trkpt lat="48.67537" lon="7.24338">
        <ele>446.9</ele>
        <time>2020-08-12T06:41:42Z</time>
      </trkpt>
      <trkpt lat="48.67542" lon="7.24319">
        <ele>445.4</ele>
        <time>2020-08-12T06:41:44Z</time>
      </trkpt>
      <trkpt lat="48.67547" lon="7.24302">
        <ele>443</ele>
        <time>2020-08-12T06:41:46Z</time>
      </trkpt>
      <trkpt lat="48.67555" lon="7.24288">
        <ele>440.9</ele>
        <time>2020-08-12T06:41:48Z</time>
      </trkpt>
      <trkpt lat="48.67563" lon="7.24273">
        <ele>438.3</ele>
        <time>2020-08-12T06:41:50Z</time>
      </trkpt>
      <trkpt lat="48.67571" lon="7.24258">
        <ele>435.2</ele>
        <time>2020-08-12T06:41:52Z</time>
      </trkpt>
      <trkpt lat="48.6758" lon="7.24242">
        <ele>433.1</ele>
        <time>2020-08-12T06:41:54Z</time>
      </trkpt>
      <trkpt lat="48.67589" lon="7.24225">
        <ele>431.2</ele>
        <time>2020-08-12T06:41:56Z</time>
      </trkpt>
      <trkpt lat="48.67597" lon="7.24208">
        <ele>429.5</ele>
        <time>2020-08-12T06:41:58Z</time>
      </trkpt>
      <trkpt lat="48.67605" lon="7.24191">
        <ele>428.6</ele>
        <time>2020-08-12T06:42:00Z</time>
      </trkpt>
      <trkpt lat="48.67613" lon="7.24176">
        <ele>428</ele>
        <time>2020-08-12T06:42:02Z</time>
      </trkpt>
      <trkpt lat="48.67621" lon="7.24162">
        <ele>427.3</ele>
        <time>2020-08-12T06:42:04Z</time>
      </trkpt>
      <trkpt lat="48.67629" lon="7.24148">
        <ele>427</ele>
        <time>2020-08-12T06:42:06Z</time>
      </trkpt>
      <trkpt lat="48.67637" lon="7.24137">
        <ele>426.8</ele>
        <time>2020-08-12T06:42:08Z</time>
      </trkpt>
      <trkpt lat="48.67644" lon="7.24124">
        <ele>426.3</ele>
        <time>2020-08-12T06:42:10Z</time>
      </trkpt>
      <trkpt lat="48.6765" lon="7.24115">
        <ele>425.5</ele>
        <time>2020-08-12T06:42:12Z</time>
      </trkpt>
      <trkpt lat="48.67656" lon="7.24103">
        <ele>425.2</ele>
        <time>2020-08-12T06:42:14Z</time>
      </trkpt>
      <trkpt lat="48.67661" lon="7.24089">
        <ele>424.9</ele>
        <time>2020-08-12T06:42:16Z</time>
      </trkpt>
      <trkpt lat="48.67665" lon="7.24075">
        <ele>424.7</ele>
        <time>2020-08-12T06:42:18Z</time>
      </trkpt>
      <trkpt lat="48.67669" lon="7.2406">
        <ele>424.4</ele>
        <time>2020-08-12T06:42:20Z</time>
      </trkpt>
      <trkpt lat="48.67673" lon="7.24044">
        <ele>423.8</ele>
        <time>2020-08-12T06:42:22Z</time>
      </trkpt>
      <trkpt lat="48.67677" lon="7.24032">
        <ele>424.3</ele>
        <time>2020-08-12T06:42:24Z</time>
      </trkpt>
      <trkpt lat="48.6768" lon="7.24021">
        <ele>424.7</ele>
        <time>2020-08-12T06:42:26Z</time>
      </trkpt>
      <trkpt lat="48.67683" lon="7.24008">
        <ele>425</ele>
        <time>2020-08-12T06:42:28Z</time>
      </trkpt>
      <trkpt lat="48.67685" lon="7.23994">
        <ele>425.5</ele>
        <time>2020-08-12T06:42:30Z</time>
      </trkpt>
      <trkpt lat="48.67687" lon="7.23981">
        <ele>425.4</ele>
        <time>2020-08-12T06:42:32Z</time>
      </trkpt>
      <trkpt lat="48.67687" lon="7.2397">
        <ele>426.1</ele>
        <time>2020-08-12T06:42:34Z</time>
      </trkpt>
      <trkpt lat="48.67688" lon="7.23959">
        <ele>427</ele>
        <time>2020-08-12T06:42:36Z</time>
      </trkpt>
      <trkpt lat="48.67691" lon="7.23946">
        <ele>427.1</ele>
        <time>2020-08-12T06:42:38Z</time>
      </trkpt>
      <trkpt lat="48.67693" lon="7.23931">
        <ele>427</ele>
        <time>2020-08-12T06:42:40Z</time>
      </trkpt>
      <trkpt lat="48.67695" lon="7.23916">
        <ele>427.6</ele>
        <time>2020-08-12T06:42:42Z</time>
      </trkpt>
      <trkpt lat="48.67697" lon="7.23901">
        <ele>428.3</ele>
        <time>2020-08-12T06:42:44Z</time>
      </trkpt>
      <trkpt lat="48.67701" lon="7.23889">
        <ele>428</ele>
        <time>2020-08-12T06:42:46Z</time>
      </trkpt>
      <trkpt lat="48.67704" lon="7.23876">
        <ele>428.5</ele>
        <time>2020-08-12T06:42:48Z</time>
      </trkpt>
      <trkpt lat="48.67707" lon="7.23864">
        <ele>428.6</ele>
        <time>2020-08-12T06:42:50Z</time>
      </trkpt>
      <trkpt lat="48.67709" lon="7.23853">
        <ele>428.4</ele>
        <time>2020-08-12T06:42:52Z</time>
      </trkpt>
      <trkpt lat="48.67709" lon="7.23839">
        <ele>428.8</ele>
        <time>2020-08-12T06:42:54Z</time>
      </trkpt>
      <trkpt lat="48.67709" lon="7.23825">
        <ele>429.6</ele>
        <time>2020-08-12T06:42:56Z</time>
      </trkpt>
      <trkpt lat="48.6771" lon="7.23812">
        <ele>430.8</ele>
        <time>2020-08-12T06:42:58Z</time>
      </trkpt>
      <trkpt lat="48.6771" lon="7.23798">
        <ele>431.3</ele>
        <time>2020-08-12T06:43:00Z</time>
      </trkpt>
      <trkpt lat="48.67711" lon="7.23784">
        <ele>431.3</ele>
        <time>2020-08-12T06:43:02Z</time>
      </trkpt>
      <trkpt lat="48.67711" lon="7.2377">
        <ele>432.2</ele>
        <time>2020-08-12T06:43:04Z</time>
      </trkpt>
      <trkpt lat="48.67712" lon="7.23757">
        <ele>432.8</ele>
        <time>2020-08-12T06:43:06Z</time>
      </trkpt>
      <trkpt lat="48.67712" lon="7.23744">
        <ele>433.1</ele>
        <time>2020-08-12T06:43:08Z</time>
      </trkpt>
      <trkpt lat="48.6771" lon="7.23731">
        <ele>441.8</ele>
        <time>2020-08-12T06:43:10Z</time>
      </trkpt>
      <trkpt lat="48.67706" lon="7.23714">
        <ele>443.5</ele>
        <time>2020-08-12T06:43:12Z</time>
      </trkpt>
      <trkpt lat="48.67703" lon="7.23696">
        <ele>444.9</ele>
        <time>2020-08-12T06:43:14Z</time>
      </trkpt>
      <trkpt lat="48.677" lon="7.23677">
        <ele>444.8</ele>
        <time>2020-08-12T06:43:16Z</time>
      </trkpt>
      <trkpt lat="48.67697" lon="7.23656">
        <ele>444.3</ele>
        <time>2020-08-12T06:43:18Z</time>
      </trkpt>
      <trkpt lat="48.67694" lon="7.23636">
        <ele>443.9</ele>
        <time>2020-08-12T06:43:20Z</time>
      </trkpt>
      <trkpt lat="48.67692" lon="7.23619">
        <ele>443.4</ele>
        <time>2020-08-12T06:43:22Z</time>
      </trkpt>
      <trkpt lat="48.67692" lon="7.23603">
        <ele>442.8</ele>
        <time>2020-08-12T06:43:24Z</time>
      </trkpt>
      <trkpt lat="48.67691" lon="7.23588">
        <ele>442.8</ele>
        <time>2020-08-12T06:43:26Z</time>
      </trkpt>
      <trkpt lat="48.6769" lon="7.23573">
        <ele>443</ele>
        <time>2020-08-12T06:43:28Z</time>
      </trkpt>
      <trkpt lat="48.67689" lon="7.23561">
        <ele>442.9</ele>
        <time>2020-08-12T06:43:30Z</time>
      </trkpt>
      <trkpt lat="48.67687" lon="7.23548">
        <ele>443.4</ele>
        <time>2020-08-12T06:43:32Z</time>
      </trkpt>
      <trkpt lat="48.67685" lon="7.23536">
        <ele>443.4</ele>
        <time>2020-08-12T06:43:34Z</time>
      </trkpt>
      <trkpt lat="48.67686" lon="7.23529">
        <ele>442</ele>
        <time>2020-08-12T06:43:36Z</time>
      </trkpt>
      <trkpt lat="48.67687" lon="7.23522">
        <ele>438.8</ele>
        <time>2020-08-12T06:43:41Z</time>
      </trkpt>
      <trkpt lat="48.67687" lon="7.23513">
        <ele>436.8</ele>
        <time>2020-08-12T06:43:46Z</time>
      </trkpt>
      <trkpt lat="48.67687" lon="7.23504">
        <ele>436.2</ele>
        <time>2020-08-12T06:43:48Z</time>
      </trkpt>
      <trkpt lat="48.67686" lon="7.23489">
        <ele>434.8</ele>
        <time>2020-08-12T06:43:50Z</time>
      </trkpt>
      <trkpt lat="48.67684" lon="7.23472">
        <ele>433.6</ele>
        <time>2020-08-12T06:43:52Z</time>
      </trkpt>
      <trkpt lat="48.67681" lon="7.23455">
        <ele>432.1</ele>
        <time>2020-08-12T06:43:54Z</time>
      </trkpt>
      <trkpt lat="48.6768" lon="7.23435">
        <ele>431.8</ele>
        <time>2020-08-12T06:43:56Z</time>
      </trkpt>
      <trkpt lat="48.67677" lon="7.23416">
        <ele>431.4</ele>
        <time>2020-08-12T06:43:58Z</time>
      </trkpt>
      <trkpt lat="48.67674" lon="7.23395">
        <ele>431</ele>
        <time>2020-08-12T06:44:00Z</time>
      </trkpt>
      <trkpt lat="48.6767" lon="7.23378">
        <ele>439.1</ele>
        <time>2020-08-12T06:44:02Z</time>
      </trkpt>
      <trkpt lat="48.67667" lon="7.2336">
        <ele>439.8</ele>
        <time>2020-08-12T06:44:04Z</time>
      </trkpt>
      <trkpt lat="48.67664" lon="7.23342">
        <ele>439.5</ele>
        <time>2020-08-12T06:44:06Z</time>
      </trkpt>
      <trkpt lat="48.67661" lon="7.23323">
        <ele>438.4</ele>
        <time>2020-08-12T06:44:08Z</time>
      </trkpt>
      <trkpt lat="48.67657" lon="7.23304">
        <ele>436.6</ele>
        <time>2020-08-12T06:44:10Z</time>
      </trkpt>
      <trkpt lat="48.67655" lon="7.23285">
        <ele>434.8</ele>
        <time>2020-08-12T06:44:12Z</time>
      </trkpt>
      <trkpt lat="48.67654" lon="7.23264">
        <ele>432.1</ele>
        <time>2020-08-12T06:44:14Z</time>
      </trkpt>
      <trkpt lat="48.6765" lon="7.23244">
        <ele>430.5</ele>
        <time>2020-08-12T06:44:16Z</time>
      </trkpt>
      <trkpt lat="48.67647" lon="7.23222">
        <ele>428.8</ele>
        <time>2020-08-12T06:44:18Z</time>
      </trkpt>
      <trkpt lat="48.67644" lon="7.232">
        <ele>426.4</ele>
        <time>2020-08-12T06:44:20Z</time>
      </trkpt>
      <trkpt lat="48.67642" lon="7.2318">
        <ele>425</ele>
        <time>2020-08-12T06:44:22Z</time>
      </trkpt>
      <trkpt lat="48.67644" lon="7.23162">
        <ele>423.7</ele>
        <time>2020-08-12T06:44:24Z</time>
      </trkpt>
      <trkpt lat="48.67643" lon="7.23142">
        <ele>422.6</ele>
        <time>2020-08-12T06:44:26Z</time>
      </trkpt>
      <trkpt lat="48.67642" lon="7.23122">
        <ele>422</ele>
        <time>2020-08-12T06:44:28Z</time>
      </trkpt>
      <trkpt lat="48.67639" lon="7.23101">
        <ele>421.6</ele>
        <time>2020-08-12T06:44:30Z</time>
      </trkpt>
      <trkpt lat="48.67634" lon="7.2308">
        <ele>421.5</ele>
        <time>2020-08-12T06:44:32Z</time>
      </trkpt>
      <trkpt lat="48.67628" lon="7.2306">
        <ele>420.7</ele>
        <time>2020-08-12T06:44:34Z</time>
      </trkpt>
      <trkpt lat="48.67626" lon="7.23041">
        <ele>419.9</ele>
        <time>2020-08-12T06:44:36Z</time>
      </trkpt>
      <trkpt lat="48.67625" lon="7.23023">
        <ele>419.8</ele>
        <time>2020-08-12T06:44:38Z</time>
      </trkpt>
      <trkpt lat="48.67625" lon="7.23003">
        <ele>419.7</ele>
        <time>2020-08-12T06:44:40Z</time>
      </trkpt>
      <trkpt lat="48.67626" lon="7.22987">
        <ele>419.7</ele>
        <time>2020-08-12T06:44:42Z</time>
      </trkpt>
      <trkpt lat="48.67628" lon="7.22971">
        <ele>418.3</ele>
        <time>2020-08-12T06:44:44Z</time>
      </trkpt>
      <trkpt lat="48.67627" lon="7.22955">
        <ele>417.2</ele>
        <time>2020-08-12T06:44:46Z</time>
      </trkpt>
      <trkpt lat="48.67624" lon="7.2294">
        <ele>416.8</ele>
        <time>2020-08-12T06:44:48Z</time>
      </trkpt>
      <trkpt lat="48.67621" lon="7.22923">
        <ele>415.4</ele>
        <time>2020-08-12T06:44:50Z</time>
      </trkpt>
      <trkpt lat="48.67618" lon="7.22906">
        <ele>414.7</ele>
        <time>2020-08-12T06:44:52Z</time>
      </trkpt>
      <trkpt lat="48.67613" lon="7.22888">
        <ele>413.2</ele>
        <time>2020-08-12T06:44:54Z</time>
      </trkpt>
      <trkpt lat="48.67609" lon="7.22867">
        <ele>412.2</ele>
        <time>2020-08-12T06:44:56Z</time>
      </trkpt>
      <trkpt lat="48.67604" lon="7.22846">
        <ele>412.1</ele>
        <time>2020-08-12T06:44:58Z</time>
      </trkpt>
      <trkpt lat="48.67599" lon="7.22826">
        <ele>411.2</ele>
        <time>2020-08-12T06:45:00Z</time>
      </trkpt>
      <trkpt lat="48.67594" lon="7.22806">
        <ele>409.3</ele>
        <time>2020-08-12T06:45:02Z</time>
      </trkpt>
      <trkpt lat="48.67589" lon="7.22786">
        <ele>407.9</ele>
        <time>2020-08-12T06:45:04Z</time>
      </trkpt>
      <trkpt lat="48.67583" lon="7.22767">
        <ele>407</ele>
        <time>2020-08-12T06:45:06Z</time>
      </trkpt>
      <trkpt lat="48.67578" lon="7.22751">
        <ele>405.6</ele>
        <time>2020-08-12T06:45:08Z</time>
      </trkpt>
      <trkpt lat="48.67574" lon="7.22736">
        <ele>404.1</ele>
        <time>2020-08-12T06:45:10Z</time>
      </trkpt>
      <trkpt lat="48.67571" lon="7.22723">
        <ele>403.7</ele>
        <time>2020-08-12T06:45:12Z</time>
      </trkpt>
      <trkpt lat="48.67569" lon="7.22709">
        <ele>404</ele>
        <time>2020-08-12T06:45:14Z</time>
      </trkpt>
      <trkpt lat="48.67567" lon="7.22694">
        <ele>402.4</ele>
        <time>2020-08-12T06:45:16Z</time>
      </trkpt>
      <trkpt lat="48.67564" lon="7.2268">
        <ele>400.2</ele>
        <time>2020-08-12T06:45:18Z</time>
      </trkpt>
      <trkpt lat="48.67562" lon="7.22668">
        <ele>397.9</ele>
        <time>2020-08-12T06:45:20Z</time>
      </trkpt>
      <trkpt lat="48.6756" lon="7.22655">
        <ele>396.4</ele>
        <time>2020-08-12T06:45:22Z</time>
      </trkpt>
      <trkpt lat="48.67557" lon="7.2264">
        <ele>395.4</ele>
        <time>2020-08-12T06:45:24Z</time>
      </trkpt>
      <trkpt lat="48.67554" lon="7.22623">
        <ele>394.7</ele>
        <time>2020-08-12T06:45:26Z</time>
      </trkpt>
      <trkpt lat="48.67551" lon="7.22608">
        <ele>394.4</ele>
        <time>2020-08-12T06:45:28Z</time>
      </trkpt>
      <trkpt lat="48.6755" lon="7.22592">
        <ele>393.7</ele>
        <time>2020-08-12T06:45:30Z</time>
      </trkpt>
      <trkpt lat="48.67549" lon="7.22578">
        <ele>394</ele>
        <time>2020-08-12T06:45:32Z</time>
      </trkpt>
      <trkpt lat="48.67546" lon="7.22562">
        <ele>394.1</ele>
        <time>2020-08-12T06:45:34Z</time>
      </trkpt>
      <trkpt lat="48.67541" lon="7.22547">
        <ele>395.4</ele>
        <time>2020-08-12T06:45:36Z</time>
      </trkpt>
      <trkpt lat="48.67536" lon="7.22532">
        <ele>396.6</ele>
        <time>2020-08-12T06:45:38Z</time>
      </trkpt>
      <trkpt lat="48.67531" lon="7.22517">
        <ele>398.1</ele>
        <time>2020-08-12T06:45:40Z</time>
      </trkpt>
      <trkpt lat="48.67528" lon="7.22503">
        <ele>398.3</ele>
        <time>2020-08-12T06:45:42Z</time>
      </trkpt>
      <trkpt lat="48.67525" lon="7.22493">
        <ele>409.3</ele>
        <time>2020-08-12T06:45:44Z</time>
      </trkpt>
      <trkpt lat="48.67524" lon="7.22483">
        <ele>414</ele>
        <time>2020-08-12T06:45:46Z</time>
      </trkpt>
      <trkpt lat="48.67524" lon="7.22473">
        <ele>419.5</ele>
        <time>2020-08-12T06:45:48Z</time>
      </trkpt>
      <trkpt lat="48.67524" lon="7.22462">
        <ele>423.4</ele>
        <time>2020-08-12T06:45:50Z</time>
      </trkpt>
      <trkpt lat="48.67526" lon="7.22454">
        <ele>422.3</ele>
        <time>2020-08-12T06:45:52Z</time>
      </trkpt>
      <trkpt lat="48.67527" lon="7.22447">
        <ele>418.8</ele>
        <time>2020-08-12T06:45:54Z</time>
      </trkpt>
      <trkpt lat="48.67528" lon="7.22438">
        <ele>415.2</ele>
        <time>2020-08-12T06:45:56Z</time>
      </trkpt>
      <trkpt lat="48.67529" lon="7.22427">
        <ele>410.6</ele>
        <time>2020-08-12T06:45:58Z</time>
      </trkpt>
      <trkpt lat="48.6753" lon="7.22414">
        <ele>418.9</ele>
        <time>2020-08-12T06:46:00Z</time>
      </trkpt>
      <trkpt lat="48.67531" lon="7.22401">
        <ele>417.7</ele>
        <time>2020-08-12T06:46:02Z</time>
      </trkpt>
      <trkpt lat="48.67531" lon="7.22389">
        <ele>414.3</ele>
        <time>2020-08-12T06:46:04Z</time>
      </trkpt>
      <trkpt lat="48.6753" lon="7.22372">
        <ele>411.7</ele>
        <time>2020-08-12T06:46:06Z</time>
      </trkpt>
      <trkpt lat="48.6753" lon="7.22357">
        <ele>408.8</ele>
        <time>2020-08-12T06:46:08Z</time>
      </trkpt>
      <trkpt lat="48.6753" lon="7.22343">
        <ele>405</ele>
        <time>2020-08-12T06:46:10Z</time>
      </trkpt>
      <trkpt lat="48.67532" lon="7.2233">
        <ele>402.5</ele>
        <time>2020-08-12T06:46:12Z</time>
      </trkpt>
      <trkpt lat="48.67534" lon="7.22316">
        <ele>400.2</ele>
        <time>2020-08-12T06:46:14Z</time>
      </trkpt>
      <trkpt lat="48.67538" lon="7.22303">
        <ele>410</ele>
        <time>2020-08-12T06:46:16Z</time>
      </trkpt>
      <trkpt lat="48.67541" lon="7.22293">
        <ele>409.4</ele>
        <time>2020-08-12T06:46:18Z</time>
      </trkpt>
      <trkpt lat="48.67544" lon="7.22283">
        <ele>408</ele>
        <time>2020-08-12T06:46:20Z</time>
      </trkpt>
      <trkpt lat="48.67547" lon="7.22276">
        <ele>405.8</ele>
        <time>2020-08-12T06:46:22Z</time>
      </trkpt>
      <trkpt lat="48.67549" lon="7.22269">
        <ele>402.9</ele>
        <time>2020-08-12T06:46:24Z</time>
      </trkpt>
      <trkpt lat="48.67551" lon="7.22261">
        <ele>400.2</ele>
        <time>2020-08-12T06:46:27Z</time>
      </trkpt>
      <trkpt lat="48.67551" lon="7.22255">
        <ele>395.8</ele>
        <time>2020-08-12T06:46:36Z</time>
      </trkpt>
      <trkpt lat="48.67548" lon="7.22249">
        <ele>394.2</ele>
        <time>2020-08-12T06:46:43Z</time>
      </trkpt>
      <trkpt lat="48.67547" lon="7.22242">
        <ele>392.6</ele>
        <time>2020-08-12T06:46:54Z</time>
      </trkpt>
      <trkpt lat="48.67551" lon="7.22237">
        <ele>392</ele>
        <time>2020-08-12T06:46:57Z</time>
      </trkpt>
      <trkpt lat="48.67555" lon="7.22229">
        <ele>392.1</ele>
        <time>2020-08-12T06:47:00Z</time>
      </trkpt>
      <trkpt lat="48.67559" lon="7.22223">
        <ele>392.1</ele>
        <time>2020-08-12T06:47:03Z</time>
      </trkpt>
      <trkpt lat="48.67563" lon="7.22219">
        <ele>392.6</ele>
        <time>2020-08-12T06:47:18Z</time>
      </trkpt>
      <trkpt lat="48.67567" lon="7.22215">
        <ele>394.8</ele>
        <time>2020-08-12T06:47:22Z</time>
      </trkpt>
      <trkpt lat="48.67573" lon="7.22209">
        <ele>395.7</ele>
        <time>2020-08-12T06:47:25Z</time>
      </trkpt>
      <trkpt lat="48.67578" lon="7.22205">
        <ele>396.7</ele>
        <time>2020-08-12T06:47:27Z</time>
      </trkpt>
      <trkpt lat="48.67584" lon="7.222">
        <ele>397.7</ele>
        <time>2020-08-12T06:47:30Z</time>
      </trkpt>
      <trkpt lat="48.67589" lon="7.22197">
        <ele>398.9</ele>
        <time>2020-08-12T06:47:32Z</time>
      </trkpt>
      <trkpt lat="48.67594" lon="7.22194">
        <ele>399.6</ele>
        <time>2020-08-12T06:47:34Z</time>
      </trkpt>
      <trkpt lat="48.67599" lon="7.2219">
        <ele>400.6</ele>
        <time>2020-08-12T06:47:36Z</time>
      </trkpt>
      <trkpt lat="48.67605" lon="7.22187">
        <ele>401.6</ele>
        <time>2020-08-12T06:47:38Z</time>
      </trkpt>
      <trkpt lat="48.6761" lon="7.22184">
        <ele>402.7</ele>
        <time>2020-08-12T06:47:40Z</time>
      </trkpt>
      <trkpt lat="48.67616" lon="7.22182">
        <ele>403.9</ele>
        <time>2020-08-12T06:47:42Z</time>
      </trkpt>
      <trkpt lat="48.67621" lon="7.22182">
        <ele>404.7</ele>
        <time>2020-08-12T06:47:44Z</time>
      </trkpt>
      <trkpt lat="48.67626" lon="7.22182">
        <ele>405.4</ele>
        <time>2020-08-12T06:47:46Z</time>
      </trkpt>
      <trkpt lat="48.67631" lon="7.22185">
        <ele>405.8</ele>
        <time>2020-08-12T06:47:48Z</time>
      </trkpt>
      <trkpt lat="48.67637" lon="7.22188">
        <ele>406.5</ele>
        <time>2020-08-12T06:47:51Z</time>
      </trkpt>
      <trkpt lat="48.67639" lon="7.22182">
        <ele>407.7</ele>
        <time>2020-08-12T06:48:00Z</time>
      </trkpt>
      <trkpt lat="48.67633" lon="7.22179">
        <ele>407.6</ele>
        <time>2020-08-12T06:48:03Z</time>
      </trkpt>
      <trkpt lat="48.67627" lon="7.22179">
        <ele>407.4</ele>
        <time>2020-08-12T06:48:05Z</time>
      </trkpt>
      <trkpt lat="48.6762" lon="7.2218">
        <ele>407.3</ele>
        <time>2020-08-12T06:48:07Z</time>
      </trkpt>
      <trkpt lat="48.67611" lon="7.22183">
        <ele>407.1</ele>
        <time>2020-08-12T06:48:09Z</time>
      </trkpt>
      <trkpt lat="48.67599" lon="7.2219">
        <ele>405.9</ele>
        <time>2020-08-12T06:48:11Z</time>
      </trkpt>
      <trkpt lat="48.67586" lon="7.22198">
        <ele>404.6</ele>
        <time>2020-08-12T06:48:13Z</time>
      </trkpt>
      <trkpt lat="48.67574" lon="7.22207">
        <ele>403</ele>
        <time>2020-08-12T06:48:15Z</time>
      </trkpt>
      <trkpt lat="48.67566" lon="7.22214">
        <ele>401.9</ele>
        <time>2020-08-12T06:48:17Z</time>
      </trkpt>
      <trkpt lat="48.67566" lon="7.22205">
        <ele>399.2</ele>
        <time>2020-08-12T06:48:23Z</time>
      </trkpt>
      <trkpt lat="48.6757" lon="7.222">
        <ele>398.8</ele>
        <time>2020-08-12T06:48:25Z</time>
      </trkpt>
      <trkpt lat="48.67576" lon="7.22195">
        <ele>399.1</ele>
        <time>2020-08-12T06:48:28Z</time>
      </trkpt>
      <trkpt lat="48.67581" lon="7.22192">
        <ele>399.1</ele>
        <time>2020-08-12T06:48:31Z</time>
      </trkpt>
      <trkpt lat="48.67586" lon="7.22189">
        <ele>398.6</ele>
        <time>2020-08-12T06:48:33Z</time>
      </trkpt>
      <trkpt lat="48.67591" lon="7.22185">
        <ele>398.3</ele>
        <time>2020-08-12T06:48:35Z</time>
      </trkpt>
      <trkpt lat="48.67596" lon="7.2218">
        <ele>398.1</ele>
        <time>2020-08-12T06:48:37Z</time>
      </trkpt>
      <trkpt lat="48.67602" lon="7.22176">
        <ele>397.9</ele>
        <time>2020-08-12T06:48:39Z</time>
      </trkpt>
      <trkpt lat="48.67607" lon="7.22173">
        <ele>398.7</ele>
        <time>2020-08-12T06:48:41Z</time>
      </trkpt>
      <trkpt lat="48.67613" lon="7.22171">
        <ele>399.5</ele>
        <time>2020-08-12T06:48:43Z</time>
      </trkpt>
      <trkpt lat="48.67618" lon="7.22169">
        <ele>400.1</ele>
        <time>2020-08-12T06:48:45Z</time>
      </trkpt>
      <trkpt lat="48.67623" lon="7.22166">
        <ele>400.1</ele>
        <time>2020-08-12T06:48:48Z</time>
      </trkpt>
      <trkpt lat="48.67627" lon="7.22161">
        <ele>399</ele>
        <time>2020-08-12T06:48:56Z</time>
      </trkpt>
      <trkpt lat="48.67632" lon="7.22155">
        <ele>398.1</ele>
        <time>2020-08-12T06:48:59Z</time>
      </trkpt>
      <trkpt lat="48.67636" lon="7.22151">
        <ele>397.6</ele>
        <time>2020-08-12T06:49:01Z</time>
      </trkpt>
      <trkpt lat="48.67641" lon="7.22148">
        <ele>397</ele>
        <time>2020-08-12T06:49:03Z</time>
      </trkpt>
      <trkpt lat="48.67646" lon="7.22144">
        <ele>396.8</ele>
        <time>2020-08-12T06:49:05Z</time>
      </trkpt>
      <trkpt lat="48.67652" lon="7.2214">
        <ele>396.3</ele>
        <time>2020-08-12T06:49:07Z</time>
      </trkpt>
      <trkpt lat="48.67658" lon="7.22137">
        <ele>395.6</ele>
        <time>2020-08-12T06:49:09Z</time>
      </trkpt>
      <trkpt lat="48.67664" lon="7.22134">
        <ele>395</ele>
        <time>2020-08-12T06:49:11Z</time>
      </trkpt>
      <trkpt lat="48.67671" lon="7.22131">
        <ele>394.2</ele>
        <time>2020-08-12T06:49:13Z</time>
      </trkpt>
      <trkpt lat="48.67677" lon="7.22129">
        <ele>393.9</ele>
        <time>2020-08-12T06:49:15Z</time>
      </trkpt>
      <trkpt lat="48.67682" lon="7.22129">
        <ele>392.9</ele>
        <time>2020-08-12T06:49:17Z</time>
      </trkpt>
      <trkpt lat="48.67689" lon="7.22132">
        <ele>391.6</ele>
        <time>2020-08-12T06:49:19Z</time>
      </trkpt>
      <trkpt lat="48.67694" lon="7.22133">
        <ele>391.2</ele>
        <time>2020-08-12T06:49:21Z</time>
      </trkpt>
      <trkpt lat="48.67699" lon="7.22134">
        <ele>390.9</ele>
        <time>2020-08-12T06:49:23Z</time>
      </trkpt>
      <trkpt lat="48.67705" lon="7.22136">
        <ele>390.7</ele>
        <time>2020-08-12T06:49:25Z</time>
      </trkpt>
      <trkpt lat="48.67714" lon="7.22136">
        <ele>390.7</ele>
        <time>2020-08-12T06:49:27Z</time>
      </trkpt>
      <trkpt lat="48.67724" lon="7.22139">
        <ele>390.7</ele>
        <time>2020-08-12T06:49:29Z</time>
      </trkpt>
      <trkpt lat="48.67733" lon="7.2214">
        <ele>390.6</ele>
        <time>2020-08-12T06:49:31Z</time>
      </trkpt>
      <trkpt lat="48.67742" lon="7.22142">
        <ele>390.7</ele>
        <time>2020-08-12T06:49:33Z</time>
      </trkpt>
      <trkpt lat="48.67752" lon="7.22143">
        <ele>391</ele>
        <time>2020-08-12T06:49:35Z</time>
      </trkpt>
      <trkpt lat="48.67766" lon="7.22146">
        <ele>391.5</ele>
        <time>2020-08-12T06:49:37Z</time>
      </trkpt>
      <trkpt lat="48.67778" lon="7.2215">
        <ele>392</ele>
        <time>2020-08-12T06:49:39Z</time>
      </trkpt>
      <trkpt lat="48.6779" lon="7.22154">
        <ele>392.4</ele>
        <time>2020-08-12T06:49:41Z</time>
      </trkpt>
      <trkpt lat="48.67803" lon="7.22159">
        <ele>392.7</ele>
        <time>2020-08-12T06:49:43Z</time>
      </trkpt>
      <trkpt lat="48.67815" lon="7.22164">
        <ele>392.5</ele>
        <time>2020-08-12T06:49:45Z</time>
      </trkpt>
      <trkpt lat="48.67829" lon="7.22173">
        <ele>391.8</ele>
        <time>2020-08-12T06:49:47Z</time>
      </trkpt>
      <trkpt lat="48.6784" lon="7.22182">
        <ele>391.7</ele>
        <time>2020-08-12T06:49:49Z</time>
      </trkpt>
      <trkpt lat="48.67852" lon="7.22191">
        <ele>391.3</ele>
        <time>2020-08-12T06:49:51Z</time>
      </trkpt>
      <trkpt lat="48.67865" lon="7.222">
        <ele>391.1</ele>
        <time>2020-08-12T06:49:53Z</time>
      </trkpt>
      <trkpt lat="48.67877" lon="7.22206">
        <ele>390.3</ele>
        <time>2020-08-12T06:49:55Z</time>
      </trkpt>
      <trkpt lat="48.67889" lon="7.2221">
        <ele>389.4</ele>
        <time>2020-08-12T06:49:57Z</time>
      </trkpt>
      <trkpt lat="48.67901" lon="7.22214">
        <ele>388.6</ele>
        <time>2020-08-12T06:49:59Z</time>
      </trkpt>
      <trkpt lat="48.67911" lon="7.22218">
        <ele>388.2</ele>
        <time>2020-08-12T06:50:01Z</time>
      </trkpt>
      <trkpt lat="48.67925" lon="7.22224">
        <ele>387.3</ele>
        <time>2020-08-12T06:50:03Z</time>
      </trkpt>
      <trkpt lat="48.67938" lon="7.2223">
        <ele>387.1</ele>
        <time>2020-08-12T06:50:05Z</time>
      </trkpt>
      <trkpt lat="48.67951" lon="7.22237">
        <ele>386.6</ele>
        <time>2020-08-12T06:50:07Z</time>
      </trkpt>
      <trkpt lat="48.67963" lon="7.22245">
        <ele>386.3</ele>
        <time>2020-08-12T06:50:09Z</time>
      </trkpt>
      <trkpt lat="48.67974" lon="7.22259">
        <ele>384.6</ele>
        <time>2020-08-12T06:50:11Z</time>
      </trkpt>
      <trkpt lat="48.67984" lon="7.22277">
        <ele>382.8</ele>
        <time>2020-08-12T06:50:13Z</time>
      </trkpt>
      <trkpt lat="48.67993" lon="7.22287">
        <ele>381.3</ele>
        <time>2020-08-12T06:50:15Z</time>
      </trkpt>
      <trkpt lat="48.68001" lon="7.22298">
        <ele>379.8</ele>
        <time>2020-08-12T06:50:17Z</time>
      </trkpt>
      <trkpt lat="48.68009" lon="7.22307">
        <ele>378.8</ele>
        <time>2020-08-12T06:50:19Z</time>
      </trkpt>
      <trkpt lat="48.68019" lon="7.22316">
        <ele>377.6</ele>
        <time>2020-08-12T06:50:21Z</time>
      </trkpt>
      <trkpt lat="48.68029" lon="7.2233">
        <ele>376.4</ele>
        <time>2020-08-12T06:50:23Z</time>
      </trkpt>
      <trkpt lat="48.68039" lon="7.22343">
        <ele>375.5</ele>
        <time>2020-08-12T06:50:25Z</time>
      </trkpt>
      <trkpt lat="48.68047" lon="7.22354">
        <ele>374.9</ele>
        <time>2020-08-12T06:50:27Z</time>
      </trkpt>
      <trkpt lat="48.68056" lon="7.22361">
        <ele>373.9</ele>
        <time>2020-08-12T06:50:29Z</time>
      </trkpt>
      <trkpt lat="48.68063" lon="7.22364">
        <ele>373.6</ele>
        <time>2020-08-12T06:50:31Z</time>
      </trkpt>
      <trkpt lat="48.68069" lon="7.22361">
        <ele>373.4</ele>
        <time>2020-08-12T06:50:33Z</time>
      </trkpt>
      <trkpt lat="48.68074" lon="7.22356">
        <ele>373.6</ele>
        <time>2020-08-12T06:50:35Z</time>
      </trkpt>
      <trkpt lat="48.68078" lon="7.22347">
        <ele>373.7</ele>
        <time>2020-08-12T06:50:37Z</time>
      </trkpt>
      <trkpt lat="48.68082" lon="7.22336">
        <ele>373.8</ele>
        <time>2020-08-12T06:50:39Z</time>
      </trkpt>
      <trkpt lat="48.68086" lon="7.22322">
        <ele>373.5</ele>
        <time>2020-08-12T06:50:41Z</time>
      </trkpt>
      <trkpt lat="48.68088" lon="7.22304">
        <ele>372.8</ele>
        <time>2020-08-12T06:50:43Z</time>
      </trkpt>
      <trkpt lat="48.68091" lon="7.22286">
        <ele>372.4</ele>
        <time>2020-08-12T06:50:45Z</time>
      </trkpt>
      <trkpt lat="48.68093" lon="7.22269">
        <ele>371.9</ele>
        <time>2020-08-12T06:50:47Z</time>
      </trkpt>
      <trkpt lat="48.68094" lon="7.22251">
        <ele>371.3</ele>
        <time>2020-08-12T06:50:49Z</time>
      </trkpt>
      <trkpt lat="48.68094" lon="7.22244">
        <ele>370.2</ele>
        <time>2020-08-12T06:50:51Z</time>
      </trkpt>
      <trkpt lat="48.68094" lon="7.22228">
        <ele>369</ele>
        <time>2020-08-12T06:50:53Z</time>
      </trkpt>
      <trkpt lat="48.68092" lon="7.22209">
        <ele>367.7</ele>
        <time>2020-08-12T06:50:55Z</time>
      </trkpt>
      <trkpt lat="48.68091" lon="7.22186">
        <ele>366.5</ele>
        <time>2020-08-12T06:50:57Z</time>
      </trkpt>
      <trkpt lat="48.68089" lon="7.22165">
        <ele>365.5</ele>
        <time>2020-08-12T06:50:59Z</time>
      </trkpt>
      <trkpt lat="48.68085" lon="7.22145">
        <ele>365.8</ele>
        <time>2020-08-12T06:51:01Z</time>
      </trkpt>
      <trkpt lat="48.68082" lon="7.22125">
        <ele>364.5</ele>
        <time>2020-08-12T06:51:03Z</time>
      </trkpt>
      <trkpt lat="48.68078" lon="7.22106">
        <ele>363.6</ele>
        <time>2020-08-12T06:51:05Z</time>
      </trkpt>
      <trkpt lat="48.68074" lon="7.22087">
        <ele>361.4</ele>
        <time>2020-08-12T06:51:07Z</time>
      </trkpt>
      <trkpt lat="48.68068" lon="7.22072">
        <ele>359.8</ele>
        <time>2020-08-12T06:51:09Z</time>
      </trkpt>
      <trkpt lat="48.68062" lon="7.22054">
        <ele>359.2</ele>
        <time>2020-08-12T06:51:11Z</time>
      </trkpt>
      <trkpt lat="48.68058" lon="7.22033">
        <ele>358.7</ele>
        <time>2020-08-12T06:51:13Z</time>
      </trkpt>
      <trkpt lat="48.68053" lon="7.2201">
        <ele>357.9</ele>
        <time>2020-08-12T06:51:15Z</time>
      </trkpt>
      <trkpt lat="48.68049" lon="7.21989">
        <ele>361.7</ele>
        <time>2020-08-12T06:51:17Z</time>
      </trkpt>
      <trkpt lat="48.68044" lon="7.21968">
        <ele>360.2</ele>
        <time>2020-08-12T06:51:19Z</time>
      </trkpt>
      <trkpt lat="48.68038" lon="7.21949">
        <ele>359.3</ele>
        <time>2020-08-12T06:51:21Z</time>
      </trkpt>
      <trkpt lat="48.6803" lon="7.2193">
        <ele>357.8</ele>
        <time>2020-08-12T06:51:23Z</time>
      </trkpt>
      <trkpt lat="48.68025" lon="7.21912">
        <ele>356.6</ele>
        <time>2020-08-12T06:51:25Z</time>
      </trkpt>
      <trkpt lat="48.68019" lon="7.21892">
        <ele>354.7</ele>
        <time>2020-08-12T06:51:27Z</time>
      </trkpt>
      <trkpt lat="48.68015" lon="7.21872">
        <ele>356.8</ele>
        <time>2020-08-12T06:51:29Z</time>
      </trkpt>
      <trkpt lat="48.68014" lon="7.21855">
        <ele>354.1</ele>
        <time>2020-08-12T06:51:31Z</time>
      </trkpt>
      <trkpt lat="48.68015" lon="7.21837">
        <ele>351.5</ele>
        <time>2020-08-12T06:51:33Z</time>
      </trkpt>
      <trkpt lat="48.68018" lon="7.21823">
        <ele>350.1</ele>
        <time>2020-08-12T06:51:35Z</time>
      </trkpt>
      <trkpt lat="48.68024" lon="7.21812">
        <ele>348.3</ele>
        <time>2020-08-12T06:51:37Z</time>
      </trkpt>
      <trkpt lat="48.68031" lon="7.21802">
        <ele>347</ele>
        <time>2020-08-12T06:51:39Z</time>
      </trkpt>
      <trkpt lat="48.68041" lon="7.21791">
        <ele>345.6</ele>
        <time>2020-08-12T06:51:41Z</time>
      </trkpt>
      <trkpt lat="48.6805" lon="7.2178">
        <ele>344.5</ele>
        <time>2020-08-12T06:51:43Z</time>
      </trkpt>
      <trkpt lat="48.68056" lon="7.21767">
        <ele>343.3</ele>
        <time>2020-08-12T06:51:45Z</time>
      </trkpt>
      <trkpt lat="48.68059" lon="7.21753">
        <ele>342.2</ele>
        <time>2020-08-12T06:51:47Z</time>
      </trkpt>
      <trkpt lat="48.68059" lon="7.21739">
        <ele>341.9</ele>
        <time>2020-08-12T06:51:49Z</time>
      </trkpt>
      <trkpt lat="48.68056" lon="7.21725">
        <ele>341.9</ele>
        <time>2020-08-12T06:51:51Z</time>
      </trkpt>
      <trkpt lat="48.68055" lon="7.21709">
        <ele>345.7</ele>
        <time>2020-08-12T06:51:53Z</time>
      </trkpt>
      <trkpt lat="48.68052" lon="7.21696">
        <ele>346.2</ele>
        <time>2020-08-12T06:51:55Z</time>
      </trkpt>
      <trkpt lat="48.68051" lon="7.21685">
        <ele>346.4</ele>
        <time>2020-08-12T06:51:57Z</time>
      </trkpt>
      <trkpt lat="48.6805" lon="7.21675">
        <ele>346.6</ele>
        <time>2020-08-12T06:51:59Z</time>
      </trkpt>
      <trkpt lat="48.68047" lon="7.21665">
        <ele>346.5</ele>
        <time>2020-08-12T06:52:01Z</time>
      </trkpt>
      <trkpt lat="48.68041" lon="7.21653">
        <ele>345.3</ele>
        <time>2020-08-12T06:52:03Z</time>
      </trkpt>
      <trkpt lat="48.68034" lon="7.21645">
        <ele>343.9</ele>
        <time>2020-08-12T06:52:05Z</time>
      </trkpt>
      <trkpt lat="48.6803" lon="7.21642">
        <ele>343.4</ele>
        <time>2020-08-12T06:52:07Z</time>
      </trkpt>
      <trkpt lat="48.68025" lon="7.21642">
        <ele>354.7</ele>
        <time>2020-08-12T06:52:17Z</time>
      </trkpt>
      <trkpt lat="48.68018" lon="7.21642">
        <ele>352</ele>
        <time>2020-08-12T06:52:20Z</time>
      </trkpt>
      <trkpt lat="48.68013" lon="7.2164">
        <ele>349.4</ele>
        <time>2020-08-12T06:52:22Z</time>
      </trkpt>
      <trkpt lat="48.68008" lon="7.2164">
        <ele>347.5</ele>
        <time>2020-08-12T06:52:24Z</time>
      </trkpt>
      <trkpt lat="48.68002" lon="7.21643">
        <ele>345.4</ele>
        <time>2020-08-12T06:52:26Z</time>
      </trkpt>
      <trkpt lat="48.67995" lon="7.21646">
        <ele>343.1</ele>
        <time>2020-08-12T06:52:28Z</time>
      </trkpt>
      <trkpt lat="48.67988" lon="7.21648">
        <ele>340.8</ele>
        <time>2020-08-12T06:52:30Z</time>
      </trkpt>
      <trkpt lat="48.6798" lon="7.21652">
        <ele>338.5</ele>
        <time>2020-08-12T06:52:32Z</time>
      </trkpt>
      <trkpt lat="48.67971" lon="7.21658">
        <ele>344.6</ele>
        <time>2020-08-12T06:52:34Z</time>
      </trkpt>
      <trkpt lat="48.67963" lon="7.21661">
        <ele>347.5</ele>
        <time>2020-08-12T06:52:36Z</time>
      </trkpt>
      <trkpt lat="48.67954" lon="7.21664">
        <ele>345.1</ele>
        <time>2020-08-12T06:52:38Z</time>
      </trkpt>
      <trkpt lat="48.67944" lon="7.21667">
        <ele>343.2</ele>
        <time>2020-08-12T06:52:40Z</time>
      </trkpt>
      <trkpt lat="48.67934" lon="7.2167">
        <ele>340.1</ele>
        <time>2020-08-12T06:52:42Z</time>
      </trkpt>
      <trkpt lat="48.67923" lon="7.21669">
        <ele>337.1</ele>
        <time>2020-08-12T06:52:44Z</time>
      </trkpt>
      <trkpt lat="48.67913" lon="7.21666">
        <ele>333.5</ele>
        <time>2020-08-12T06:52:46Z</time>
      </trkpt>
      <trkpt lat="48.67903" lon="7.21658">
        <ele>330.4</ele>
        <time>2020-08-12T06:52:48Z</time>
      </trkpt>
      <trkpt lat="48.67894" lon="7.21649">
        <ele>327.3</ele>
        <time>2020-08-12T06:52:50Z</time>
      </trkpt>
      <trkpt lat="48.67883" lon="7.21639">
        <ele>324.9</ele>
        <time>2020-08-12T06:52:52Z</time>
      </trkpt>
      <trkpt lat="48.67872" lon="7.21627">
        <ele>322.8</ele>
        <time>2020-08-12T06:52:54Z</time>
      </trkpt>
      <trkpt lat="48.6786" lon="7.21614">
        <ele>320.8</ele>
        <time>2020-08-12T06:52:56Z</time>
      </trkpt>
      <trkpt lat="48.67849" lon="7.21602">
        <ele>319.4</ele>
        <time>2020-08-12T06:52:58Z</time>
      </trkpt>
      <trkpt lat="48.67837" lon="7.21589">
        <ele>317.9</ele>
        <time>2020-08-12T06:53:00Z</time>
      </trkpt>
      <trkpt lat="48.67825" lon="7.21578">
        <ele>316.2</ele>
        <time>2020-08-12T06:53:02Z</time>
      </trkpt>
      <trkpt lat="48.67814" lon="7.21567">
        <ele>315.4</ele>
        <time>2020-08-12T06:53:04Z</time>
      </trkpt>
      <trkpt lat="48.67803" lon="7.21555">
        <ele>314.3</ele>
        <time>2020-08-12T06:53:06Z</time>
      </trkpt>
      <trkpt lat="48.67791" lon="7.21547">
        <ele>313.1</ele>
        <time>2020-08-12T06:53:08Z</time>
      </trkpt>
      <trkpt lat="48.6778" lon="7.21537">
        <ele>312.6</ele>
        <time>2020-08-12T06:53:10Z</time>
      </trkpt>
      <trkpt lat="48.6777" lon="7.21527">
        <ele>310.2</ele>
        <time>2020-08-12T06:53:12Z</time>
      </trkpt>
      <trkpt lat="48.67761" lon="7.21515">
        <ele>309.3</ele>
        <time>2020-08-12T06:53:14Z</time>
      </trkpt>
      <trkpt lat="48.67751" lon="7.21504">
        <ele>322.1</ele>
        <time>2020-08-12T06:53:16Z</time>
      </trkpt>
      <trkpt lat="48.67741" lon="7.21493">
        <ele>320.8</ele>
        <time>2020-08-12T06:53:18Z</time>
      </trkpt>
      <trkpt lat="48.67731" lon="7.2148">
        <ele>320</ele>
        <time>2020-08-12T06:53:20Z</time>
      </trkpt>
      <trkpt lat="48.67722" lon="7.21467">
        <ele>316.5</ele>
        <time>2020-08-12T06:53:22Z</time>
      </trkpt>
      <trkpt lat="48.67713" lon="7.21456">
        <ele>313.5</ele>
        <time>2020-08-12T06:53:24Z</time>
      </trkpt>
      <trkpt lat="48.67705" lon="7.21443">
        <ele>309.9</ele>
        <time>2020-08-12T06:53:26Z</time>
      </trkpt>
      <trkpt lat="48.67696" lon="7.21429">
        <ele>307</ele>
        <time>2020-08-12T06:53:28Z</time>
      </trkpt>
      <trkpt lat="48.67689" lon="7.21415">
        <ele>304.9</ele>
        <time>2020-08-12T06:53:30Z</time>
      </trkpt>
      <trkpt lat="48.67682" lon="7.21401">
        <ele>303.1</ele>
        <time>2020-08-12T06:53:32Z</time>
      </trkpt>
      <trkpt lat="48.67676" lon="7.21389">
        <ele>302.3</ele>
        <time>2020-08-12T06:53:34Z</time>
      </trkpt>
      <trkpt lat="48.6767" lon="7.21378">
        <ele>301.2</ele>
        <time>2020-08-12T06:53:36Z</time>
      </trkpt>
      <trkpt lat="48.67668" lon="7.21366">
        <ele>300.5</ele>
        <time>2020-08-12T06:53:38Z</time>
      </trkpt>
      <trkpt lat="48.67666" lon="7.21354">
        <ele>300</ele>
        <time>2020-08-12T06:53:40Z</time>
      </trkpt>
      <trkpt lat="48.67666" lon="7.21341">
        <ele>299.2</ele>
        <time>2020-08-12T06:53:42Z</time>
      </trkpt>
      <trkpt lat="48.67666" lon="7.2133">
        <ele>298.5</ele>
        <time>2020-08-12T06:53:44Z</time>
      </trkpt>
      <trkpt lat="48.67668" lon="7.21315">
        <ele>298.2</ele>
        <time>2020-08-12T06:53:46Z</time>
      </trkpt>
      <trkpt lat="48.6767" lon="7.21299">
        <ele>297.5</ele>
        <time>2020-08-12T06:53:48Z</time>
      </trkpt>
      <trkpt lat="48.67672" lon="7.21283">
        <ele>295.9</ele>
        <time>2020-08-12T06:53:50Z</time>
      </trkpt>
      <trkpt lat="48.67676" lon="7.21265">
        <ele>294.3</ele>
        <time>2020-08-12T06:53:52Z</time>
      </trkpt>
      <trkpt lat="48.6768" lon="7.21248">
        <ele>292.6</ele>
        <time>2020-08-12T06:53:54Z</time>
      </trkpt>
      <trkpt lat="48.67684" lon="7.21231">
        <ele>290.5</ele>
        <time>2020-08-12T06:53:56Z</time>
      </trkpt>
      <trkpt lat="48.67688" lon="7.21215">
        <ele>288.7</ele>
        <time>2020-08-12T06:53:58Z</time>
      </trkpt>
      <trkpt lat="48.67693" lon="7.21199">
        <ele>287.1</ele>
        <time>2020-08-12T06:54:00Z</time>
      </trkpt>
      <trkpt lat="48.67698" lon="7.21184">
        <ele>284.9</ele>
        <time>2020-08-12T06:54:02Z</time>
      </trkpt>
      <trkpt lat="48.67703" lon="7.21166">
        <ele>283.3</ele>
        <time>2020-08-12T06:54:04Z</time>
      </trkpt>
      <trkpt lat="48.67707" lon="7.21146">
        <ele>282.5</ele>
        <time>2020-08-12T06:54:06Z</time>
      </trkpt>
      <trkpt lat="48.67709" lon="7.21127">
        <ele>282.3</ele>
        <time>2020-08-12T06:54:08Z</time>
      </trkpt>
      <trkpt lat="48.67709" lon="7.21111">
        <ele>280.4</ele>
        <time>2020-08-12T06:54:10Z</time>
      </trkpt>
      <trkpt lat="48.67709" lon="7.21093">
        <ele>278.9</ele>
        <time>2020-08-12T06:54:12Z</time>
      </trkpt>
      <trkpt lat="48.6771" lon="7.21075">
        <ele>277.6</ele>
        <time>2020-08-12T06:54:14Z</time>
      </trkpt>
      <trkpt lat="48.67711" lon="7.21057">
        <ele>276</ele>
        <time>2020-08-12T06:54:16Z</time>
      </trkpt>
      <trkpt lat="48.67713" lon="7.2104">
        <ele>274.7</ele>
        <time>2020-08-12T06:54:18Z</time>
      </trkpt>
      <trkpt lat="48.67716" lon="7.21021">
        <ele>274.2</ele>
        <time>2020-08-12T06:54:20Z</time>
      </trkpt>
      <trkpt lat="48.67718" lon="7.21002">
        <ele>273.7</ele>
        <time>2020-08-12T06:54:22Z</time>
      </trkpt>
      <trkpt lat="48.67719" lon="7.20983">
        <ele>273</ele>
        <time>2020-08-12T06:54:24Z</time>
      </trkpt>
      <trkpt lat="48.67721" lon="7.20966">
        <ele>272.4</ele>
        <time>2020-08-12T06:54:26Z</time>
      </trkpt>
      <trkpt lat="48.67722" lon="7.20951">
        <ele>271.9</ele>
        <time>2020-08-12T06:54:28Z</time>
      </trkpt>
      <trkpt lat="48.67724" lon="7.20938">
        <ele>271.2</ele>
        <time>2020-08-12T06:54:30Z</time>
      </trkpt>
      <trkpt lat="48.67725" lon="7.20926">
        <ele>270.7</ele>
        <time>2020-08-12T06:54:32Z</time>
      </trkpt>
      <trkpt lat="48.67725" lon="7.20918">
        <ele>269.8</ele>
        <time>2020-08-12T06:54:35Z</time>
      </trkpt>
      <trkpt lat="48.67727" lon="7.20911">
        <ele>270.4</ele>
        <time>2020-08-12T06:54:54Z</time>
      </trkpt>
      <trkpt lat="48.67733" lon="7.20905">
        <ele>270.7</ele>
        <time>2020-08-12T06:54:57Z</time>
      </trkpt>
      <trkpt lat="48.67737" lon="7.20899">
        <ele>271.4</ele>
        <time>2020-08-12T06:54:59Z</time>
      </trkpt>
      <trkpt lat="48.67741" lon="7.20893">
        <ele>271.5</ele>
        <time>2020-08-12T06:55:01Z</time>
      </trkpt>
      <trkpt lat="48.67745" lon="7.20886">
        <ele>271.6</ele>
        <time>2020-08-12T06:55:03Z</time>
      </trkpt>
      <trkpt lat="48.67749" lon="7.20877">
        <ele>271.4</ele>
        <time>2020-08-12T06:55:05Z</time>
      </trkpt>
      <trkpt lat="48.67755" lon="7.20867">
        <ele>271.1</ele>
        <time>2020-08-12T06:55:07Z</time>
      </trkpt>
      <trkpt lat="48.67761" lon="7.20857">
        <ele>271.3</ele>
        <time>2020-08-12T06:55:09Z</time>
      </trkpt>
      <trkpt lat="48.67767" lon="7.20847">
        <ele>271.3</ele>
        <time>2020-08-12T06:55:11Z</time>
      </trkpt>
      <trkpt lat="48.67774" lon="7.20839">
        <ele>271.5</ele>
        <time>2020-08-12T06:55:13Z</time>
      </trkpt>
      <trkpt lat="48.67781" lon="7.2083">
        <ele>271.6</ele>
        <time>2020-08-12T06:55:15Z</time>
      </trkpt>
      <trkpt lat="48.67786" lon="7.20821">
        <ele>271.7</ele>
        <time>2020-08-12T06:55:17Z</time>
      </trkpt>
      <trkpt lat="48.67791" lon="7.20812">
        <ele>272</ele>
        <time>2020-08-12T06:55:19Z</time>
      </trkpt>
      <trkpt lat="48.67795" lon="7.208">
        <ele>272.3</ele>
        <time>2020-08-12T06:55:21Z</time>
      </trkpt>
      <trkpt lat="48.67798" lon="7.20788">
        <ele>272.5</ele>
        <time>2020-08-12T06:55:23Z</time>
      </trkpt>
      <trkpt lat="48.67802" lon="7.20775">
        <ele>272.1</ele>
        <time>2020-08-12T06:55:25Z</time>
      </trkpt>
      <trkpt lat="48.67806" lon="7.20762">
        <ele>272.2</ele>
        <time>2020-08-12T06:55:27Z</time>
      </trkpt>
      <trkpt lat="48.6781" lon="7.20747">
        <ele>272.3</ele>
        <time>2020-08-12T06:55:29Z</time>
      </trkpt>
      <trkpt lat="48.67813" lon="7.20733">
        <ele>271.8</ele>
        <time>2020-08-12T06:55:31Z</time>
      </trkpt>
      <trkpt lat="48.67816" lon="7.20717">
        <ele>271.2</ele>
        <time>2020-08-12T06:55:33Z</time>
      </trkpt>
      <trkpt lat="48.67819" lon="7.20701">
        <ele>270.9</ele>
        <time>2020-08-12T06:55:35Z</time>
      </trkpt>
      <trkpt lat="48.67821" lon="7.20686">
        <ele>270.2</ele>
        <time>2020-08-12T06:55:37Z</time>
      </trkpt>
      <trkpt lat="48.67824" lon="7.20669">
        <ele>269.5</ele>
        <time>2020-08-12T06:55:39Z</time>
      </trkpt>
      <trkpt lat="48.67827" lon="7.20653">
        <ele>268.5</ele>
        <time>2020-08-12T06:55:41Z</time>
      </trkpt>
      <trkpt lat="48.6783" lon="7.20638">
        <ele>268</ele>
        <time>2020-08-12T06:55:43Z</time>
      </trkpt>
      <trkpt lat="48.67833" lon="7.20624">
        <ele>268.1</ele>
        <time>2020-08-12T06:55:45Z</time>
      </trkpt>
      <trkpt lat="48.67834" lon="7.20612">
        <ele>268</ele>
        <time>2020-08-12T06:55:47Z</time>
      </trkpt>
      <trkpt lat="48.67835" lon="7.20599">
        <ele>267.6</ele>
        <time>2020-08-12T06:55:49Z</time>
      </trkpt>
      <trkpt lat="48.67837" lon="7.20585">
        <ele>267.7</ele>
        <time>2020-08-12T06:55:51Z</time>
      </trkpt>
      <trkpt lat="48.67838" lon="7.20572">
        <ele>267.9</ele>
        <time>2020-08-12T06:55:53Z</time>
      </trkpt>
      <trkpt lat="48.6784" lon="7.20559">
        <ele>268.6</ele>
        <time>2020-08-12T06:55:55Z</time>
      </trkpt>
      <trkpt lat="48.67844" lon="7.20546">
        <ele>269.2</ele>
        <time>2020-08-12T06:55:57Z</time>
      </trkpt>
      <trkpt lat="48.67848" lon="7.20534">
        <ele>270</ele>
        <time>2020-08-12T06:55:59Z</time>
      </trkpt>
      <trkpt lat="48.67852" lon="7.20521">
        <ele>270.5</ele>
        <time>2020-08-12T06:56:01Z</time>
      </trkpt>
      <trkpt lat="48.67856" lon="7.20506">
        <ele>270.3</ele>
        <time>2020-08-12T06:56:03Z</time>
      </trkpt>
      <trkpt lat="48.6786" lon="7.20491">
        <ele>270</ele>
        <time>2020-08-12T06:56:05Z</time>
      </trkpt>
      <trkpt lat="48.67864" lon="7.20476">
        <ele>269.4</ele>
        <time>2020-08-12T06:56:07Z</time>
      </trkpt>
      <trkpt lat="48.67867" lon="7.20458">
        <ele>268.3</ele>
        <time>2020-08-12T06:56:09Z</time>
      </trkpt>
      <trkpt lat="48.67871" lon="7.2044">
        <ele>266.6</ele>
        <time>2020-08-12T06:56:11Z</time>
      </trkpt>
      <trkpt lat="48.67871" lon="7.20431">
        <ele>266</ele>
        <time>2020-08-12T06:56:13Z</time>
      </trkpt>
      <trkpt lat="48.67872" lon="7.20423">
        <ele>276.9</ele>
        <time>2020-08-12T06:56:22Z</time>
      </trkpt>
      <trkpt lat="48.67873" lon="7.20417">
        <ele>274.6</ele>
        <time>2020-08-12T06:56:24Z</time>
      </trkpt>
      <trkpt lat="48.67877" lon="7.20407">
        <ele>273.3</ele>
        <time>2020-08-12T06:56:26Z</time>
      </trkpt>
      <trkpt lat="48.67882" lon="7.20396">
        <ele>271.6</ele>
        <time>2020-08-12T06:56:28Z</time>
      </trkpt>
      <trkpt lat="48.67889" lon="7.20384">
        <ele>269.7</ele>
        <time>2020-08-12T06:56:30Z</time>
      </trkpt>
      <trkpt lat="48.67897" lon="7.20373">
        <ele>268.2</ele>
        <time>2020-08-12T06:56:32Z</time>
      </trkpt>
      <trkpt lat="48.67906" lon="7.20359">
        <ele>266.9</ele>
        <time>2020-08-12T06:56:34Z</time>
      </trkpt>
      <trkpt lat="48.67914" lon="7.20345">
        <ele>266.1</ele>
        <time>2020-08-12T06:56:36Z</time>
      </trkpt>
      <trkpt lat="48.67922" lon="7.20331">
        <ele>265.1</ele>
        <time>2020-08-12T06:56:38Z</time>
      </trkpt>
      <trkpt lat="48.67932" lon="7.20319">
        <ele>263.8</ele>
        <time>2020-08-12T06:56:40Z</time>
      </trkpt>
      <trkpt lat="48.67942" lon="7.20307">
        <ele>263</ele>
        <time>2020-08-12T06:56:42Z</time>
      </trkpt>
      <trkpt lat="48.67951" lon="7.20296">
        <ele>262</ele>
        <time>2020-08-12T06:56:44Z</time>
      </trkpt>
      <trkpt lat="48.67961" lon="7.20282">
        <ele>261.9</ele>
        <time>2020-08-12T06:56:46Z</time>
      </trkpt>
      <trkpt lat="48.67969" lon="7.20266">
        <ele>261.4</ele>
        <time>2020-08-12T06:56:48Z</time>
      </trkpt>
      <trkpt lat="48.67976" lon="7.20247">
        <ele>261.3</ele>
        <time>2020-08-12T06:56:50Z</time>
      </trkpt>
      <trkpt lat="48.67982" lon="7.20228">
        <ele>260.8</ele>
        <time>2020-08-12T06:56:52Z</time>
      </trkpt>
      <trkpt lat="48.67987" lon="7.20209">
        <ele>260.9</ele>
        <time>2020-08-12T06:56:54Z</time>
      </trkpt>
      <trkpt lat="48.67991" lon="7.20189">
        <ele>261.2</ele>
        <time>2020-08-12T06:56:56Z</time>
      </trkpt>
      <trkpt lat="48.67993" lon="7.2017">
        <ele>261.8</ele>
        <time>2020-08-12T06:56:58Z</time>
      </trkpt>
      <trkpt lat="48.67995" lon="7.20153">
        <ele>262</ele>
        <time>2020-08-12T06:57:00Z</time>
      </trkpt>
      <trkpt lat="48.67997" lon="7.20136">
        <ele>262.2</ele>
        <time>2020-08-12T06:57:02Z</time>
      </trkpt>
      <trkpt lat="48.68" lon="7.20121">
        <ele>262.1</ele>
        <time>2020-08-12T06:57:04Z</time>
      </trkpt>
      <trkpt lat="48.68001" lon="7.20106">
        <ele>261.8</ele>
        <time>2020-08-12T06:57:06Z</time>
      </trkpt>
      <trkpt lat="48.68" lon="7.20093">
        <ele>261.8</ele>
        <time>2020-08-12T06:57:08Z</time>
      </trkpt>
      <trkpt lat="48.67997" lon="7.2008">
        <ele>260.9</ele>
        <time>2020-08-12T06:57:10Z</time>
      </trkpt>
      <trkpt lat="48.67997" lon="7.20066">
        <ele>260.2</ele>
        <time>2020-08-12T06:57:12Z</time>
      </trkpt>
      <trkpt lat="48.67996" lon="7.20054">
        <ele>259.7</ele>
        <time>2020-08-12T06:57:14Z</time>
      </trkpt>
      <trkpt lat="48.67994" lon="7.20038">
        <ele>259.3</ele>
        <time>2020-08-12T06:57:16Z</time>
      </trkpt>
      <trkpt lat="48.67992" lon="7.20021">
        <ele>258.5</ele>
        <time>2020-08-12T06:57:18Z</time>
      </trkpt>
      <trkpt lat="48.67989" lon="7.20004">
        <ele>257.8</ele>
        <time>2020-08-12T06:57:20Z</time>
      </trkpt>
      <trkpt lat="48.67987" lon="7.19988">
        <ele>256.7</ele>
        <time>2020-08-12T06:57:22Z</time>
      </trkpt>
      <trkpt lat="48.67984" lon="7.19972">
        <ele>256.7</ele>
        <time>2020-08-12T06:57:24Z</time>
      </trkpt>
      <trkpt lat="48.67985" lon="7.19953">
        <ele>277.4</ele>
        <time>2020-08-12T06:57:26Z</time>
      </trkpt>
      <trkpt lat="48.67987" lon="7.19935">
        <ele>276.4</ele>
        <time>2020-08-12T06:57:28Z</time>
      </trkpt>
      <trkpt lat="48.67989" lon="7.19918">
        <ele>274.1</ele>
        <time>2020-08-12T06:57:30Z</time>
      </trkpt>
      <trkpt lat="48.67993" lon="7.19903">
        <ele>270.5</ele>
        <time>2020-08-12T06:57:32Z</time>
      </trkpt>
      <trkpt lat="48.67998" lon="7.1989">
        <ele>267.5</ele>
        <time>2020-08-12T06:57:34Z</time>
      </trkpt>
      <trkpt lat="48.68005" lon="7.19881">
        <ele>265.2</ele>
        <time>2020-08-12T06:57:36Z</time>
      </trkpt>
      <trkpt lat="48.68014" lon="7.19872">
        <ele>263.3</ele>
        <time>2020-08-12T06:57:38Z</time>
      </trkpt>
      <trkpt lat="48.68024" lon="7.19865">
        <ele>261.7</ele>
        <time>2020-08-12T06:57:40Z</time>
      </trkpt>
      <trkpt lat="48.68034" lon="7.19857">
        <ele>260.2</ele>
        <time>2020-08-12T06:57:42Z</time>
      </trkpt>
      <trkpt lat="48.68043" lon="7.19852">
        <ele>259</ele>
        <time>2020-08-12T06:57:44Z</time>
      </trkpt>
      <trkpt lat="48.68052" lon="7.19847">
        <ele>258.2</ele>
        <time>2020-08-12T06:57:46Z</time>
      </trkpt>
      <trkpt lat="48.68061" lon="7.19844">
        <ele>257.3</ele>
        <time>2020-08-12T06:57:48Z</time>
      </trkpt>
      <trkpt lat="48.68069" lon="7.19842">
        <ele>256.8</ele>
        <time>2020-08-12T06:57:50Z</time>
      </trkpt>
      <trkpt lat="48.68078" lon="7.19839">
        <ele>256.4</ele>
        <time>2020-08-12T06:57:52Z</time>
      </trkpt>
      <trkpt lat="48.68087" lon="7.19835">
        <ele>256.4</ele>
        <time>2020-08-12T06:57:54Z</time>
      </trkpt>
      <trkpt lat="48.68097" lon="7.19832">
        <ele>255.8</ele>
        <time>2020-08-12T06:57:56Z</time>
      </trkpt>
      <trkpt lat="48.68107" lon="7.19828">
        <ele>255.5</ele>
        <time>2020-08-12T06:57:58Z</time>
      </trkpt>
      <trkpt lat="48.68117" lon="7.19821">
        <ele>255</ele>
        <time>2020-08-12T06:58:00Z</time>
      </trkpt>
      <trkpt lat="48.68128" lon="7.19813">
        <ele>254.5</ele>
        <time>2020-08-12T06:58:02Z</time>
      </trkpt>
      <trkpt lat="48.68138" lon="7.19801">
        <ele>254.2</ele>
        <time>2020-08-12T06:58:04Z</time>
      </trkpt>
      <trkpt lat="48.68145" lon="7.1979">
        <ele>253.6</ele>
        <time>2020-08-12T06:58:06Z</time>
      </trkpt>
      <trkpt lat="48.6815" lon="7.19781">
        <ele>253.1</ele>
        <time>2020-08-12T06:58:08Z</time>
      </trkpt>
      <trkpt lat="48.68152" lon="7.19772">
        <ele>252.6</ele>
        <time>2020-08-12T06:58:10Z</time>
      </trkpt>
      <trkpt lat="48.68154" lon="7.19763">
        <ele>252.4</ele>
        <time>2020-08-12T06:58:12Z</time>
      </trkpt>
      <trkpt lat="48.68158" lon="7.19757">
        <ele>251.7</ele>
        <time>2020-08-12T06:58:14Z</time>
      </trkpt>
      <trkpt lat="48.68164" lon="7.19753">
        <ele>251.3</ele>
        <time>2020-08-12T06:58:16Z</time>
      </trkpt>
      <trkpt lat="48.68171" lon="7.1975">
        <ele>250.9</ele>
        <time>2020-08-12T06:58:18Z</time>
      </trkpt>
      <trkpt lat="48.68178" lon="7.19746">
        <ele>250.6</ele>
        <time>2020-08-12T06:58:20Z</time>
      </trkpt>
      <trkpt lat="48.68184" lon="7.19742">
        <ele>250.3</ele>
        <time>2020-08-12T06:58:22Z</time>
      </trkpt>
      <trkpt lat="48.68189" lon="7.19737">
        <ele>250</ele>
        <time>2020-08-12T06:58:24Z</time>
      </trkpt>
      <trkpt lat="48.68191" lon="7.1973">
        <ele>250.4</ele>
        <time>2020-08-12T06:58:26Z</time>
      </trkpt>
      <trkpt lat="48.68189" lon="7.19723">
        <ele>254.2</ele>
        <time>2020-08-12T06:58:44Z</time>
      </trkpt>
      <trkpt lat="48.68186" lon="7.19713">
        <ele>253.7</ele>
        <time>2020-08-12T06:58:47Z</time>
      </trkpt>
      <trkpt lat="48.68182" lon="7.19703">
        <ele>252.8</ele>
        <time>2020-08-12T06:58:49Z</time>
      </trkpt>
      <trkpt lat="48.68179" lon="7.1969">
        <ele>252.1</ele>
        <time>2020-08-12T06:58:51Z</time>
      </trkpt>
      <trkpt lat="48.68176" lon="7.19681">
        <ele>250.2</ele>
        <time>2020-08-12T06:58:53Z</time>
      </trkpt>
      <trkpt lat="48.68172" lon="7.19673">
        <ele>248.8</ele>
        <time>2020-08-12T06:58:55Z</time>
      </trkpt>
      <trkpt lat="48.68167" lon="7.19662">
        <ele>247</ele>
        <time>2020-08-12T06:58:57Z</time>
      </trkpt>
      <trkpt lat="48.6816" lon="7.19652">
        <ele>246.3</ele>
        <time>2020-08-12T06:58:59Z</time>
      </trkpt>
      <trkpt lat="48.68153" lon="7.19644">
        <ele>245.5</ele>
        <time>2020-08-12T06:59:01Z</time>
      </trkpt>
      <trkpt lat="48.68146" lon="7.19638">
        <ele>245.4</ele>
        <time>2020-08-12T06:59:03Z</time>
      </trkpt>
      <trkpt lat="48.68139" lon="7.19631">
        <ele>245.5</ele>
        <time>2020-08-12T06:59:05Z</time>
      </trkpt>
      <trkpt lat="48.68132" lon="7.19627">
        <ele>245.5</ele>
        <time>2020-08-12T06:59:07Z</time>
      </trkpt>
      <trkpt lat="48.68127" lon="7.19625">
        <ele>246.2</ele>
        <time>2020-08-12T06:59:09Z</time>
      </trkpt>
      <trkpt lat="48.68122" lon="7.19624">
        <ele>245.2</ele>
        <time>2020-08-12T06:59:26Z</time>
      </trkpt>
      <trkpt lat="48.68118" lon="7.19627">
        <ele>251.2</ele>
        <time>2020-08-12T07:00:27Z</time>
      </trkpt>
      <trkpt lat="48.68111" lon="7.19624">
        <ele>251.7</ele>
        <time>2020-08-12T07:00:30Z</time>
      </trkpt>
      <trkpt lat="48.68104" lon="7.19621">
        <ele>252.1</ele>
        <time>2020-08-12T07:00:32Z</time>
      </trkpt>
      <trkpt lat="48.68096" lon="7.19618">
        <ele>252.1</ele>
        <time>2020-08-12T07:00:34Z</time>
      </trkpt>
      <trkpt lat="48.68089" lon="7.19616">
        <ele>252.2</ele>
        <time>2020-08-12T07:00:36Z</time>
      </trkpt>
      <trkpt lat="48.68081" lon="7.19613">
        <ele>252.3</ele>
        <time>2020-08-12T07:00:38Z</time>
      </trkpt>
      <trkpt lat="48.68072" lon="7.19611">
        <ele>252.4</ele>
        <time>2020-08-12T07:00:40Z</time>
      </trkpt>
      <trkpt lat="48.68064" lon="7.19609">
        <ele>252.7</ele>
        <time>2020-08-12T07:00:42Z</time>
      </trkpt>
      <trkpt lat="48.68055" lon="7.19608">
        <ele>252.9</ele>
        <time>2020-08-12T07:00:44Z</time>
      </trkpt>
      <trkpt lat="48.68046" lon="7.19606">
        <ele>252.9</ele>
        <time>2020-08-12T07:00:46Z</time>
      </trkpt>
      <trkpt lat="48.68037" lon="7.19604">
        <ele>253.1</ele>
        <time>2020-08-12T07:00:48Z</time>
      </trkpt>
      <trkpt lat="48.68027" lon="7.19602">
        <ele>253.5</ele>
        <time>2020-08-12T07:00:50Z</time>
      </trkpt>
      <trkpt lat="48.68018" lon="7.19599">
        <ele>253.9</ele>
        <time>2020-08-12T07:00:52Z</time>
      </trkpt>
      <trkpt lat="48.68008" lon="7.19596">
        <ele>254.6</ele>
        <time>2020-08-12T07:00:54Z</time>
      </trkpt>
      <trkpt lat="48.67999" lon="7.19593">
        <ele>255.1</ele>
        <time>2020-08-12T07:00:56Z</time>
      </trkpt>
      <trkpt lat="48.67989" lon="7.19591">
        <ele>255.6</ele>
        <time>2020-08-12T07:00:58Z</time>
      </trkpt>
      <trkpt lat="48.6798" lon="7.19587">
        <ele>255.8</ele>
        <time>2020-08-12T07:01:00Z</time>
      </trkpt>
      <trkpt lat="48.6797" lon="7.19585">
        <ele>256.2</ele>
        <time>2020-08-12T07:01:02Z</time>
      </trkpt>
      <trkpt lat="48.67961" lon="7.19583">
        <ele>256.6</ele>
        <time>2020-08-12T07:01:04Z</time>
      </trkpt>
      <trkpt lat="48.67951" lon="7.19581">
        <ele>257.1</ele>
        <time>2020-08-12T07:01:06Z</time>
      </trkpt>
      <trkpt lat="48.67941" lon="7.19579">
        <ele>257.4</ele>
        <time>2020-08-12T07:01:08Z</time>
      </trkpt>
      <trkpt lat="48.67932" lon="7.19578">
        <ele>257.8</ele>
        <time>2020-08-12T07:01:10Z</time>
      </trkpt>
      <trkpt lat="48.67922" lon="7.19577">
        <ele>258.1</ele>
        <time>2020-08-12T07:01:12Z</time>
      </trkpt>
      <trkpt lat="48.67913" lon="7.19577">
        <ele>258.2</ele>
        <time>2020-08-12T07:01:14Z</time>
      </trkpt>
      <trkpt lat="48.67903" lon="7.19578">
        <ele>258.6</ele>
        <time>2020-08-12T07:01:16Z</time>
      </trkpt>
      <trkpt lat="48.67893" lon="7.1958">
        <ele>259.3</ele>
        <time>2020-08-12T07:01:18Z</time>
      </trkpt>
      <trkpt lat="48.67883" lon="7.19583">
        <ele>259.7</ele>
        <time>2020-08-12T07:01:20Z</time>
      </trkpt>
      <trkpt lat="48.67873" lon="7.19586">
        <ele>260.2</ele>
        <time>2020-08-12T07:01:22Z</time>
      </trkpt>
      <trkpt lat="48.67863" lon="7.19588">
        <ele>260.4</ele>
        <time>2020-08-12T07:01:24Z</time>
      </trkpt>
      <trkpt lat="48.67853" lon="7.19593">
        <ele>260.7</ele>
        <time>2020-08-12T07:01:26Z</time>
      </trkpt>
      <trkpt lat="48.67843" lon="7.19597">
        <ele>260.7</ele>
        <time>2020-08-12T07:01:28Z</time>
      </trkpt>
      <trkpt lat="48.67834" lon="7.19601">
        <ele>260.7</ele>
        <time>2020-08-12T07:01:30Z</time>
      </trkpt>
      <trkpt lat="48.67824" lon="7.19607">
        <ele>260.7</ele>
        <time>2020-08-12T07:01:32Z</time>
      </trkpt>
      <trkpt lat="48.67814" lon="7.19612">
        <ele>260.7</ele>
        <time>2020-08-12T07:01:34Z</time>
      </trkpt>
      <trkpt lat="48.67805" lon="7.19618">
        <ele>260.4</ele>
        <time>2020-08-12T07:01:36Z</time>
      </trkpt>
      <trkpt lat="48.67795" lon="7.19625">
        <ele>260.5</ele>
        <time>2020-08-12T07:01:38Z</time>
      </trkpt>
      <trkpt lat="48.67785" lon="7.1963">
        <ele>258.8</ele>
        <time>2020-08-12T07:01:40Z</time>
      </trkpt>
      <trkpt lat="48.67775" lon="7.19636">
        <ele>258</ele>
        <time>2020-08-12T07:01:42Z</time>
      </trkpt>
      <trkpt lat="48.67766" lon="7.1964">
        <ele>257.6</ele>
        <time>2020-08-12T07:01:44Z</time>
      </trkpt>
      <trkpt lat="48.67756" lon="7.19645">
        <ele>257.8</ele>
        <time>2020-08-12T07:01:46Z</time>
      </trkpt>
      <trkpt lat="48.67746" lon="7.19648">
        <ele>258.8</ele>
        <time>2020-08-12T07:01:48Z</time>
      </trkpt>
      <trkpt lat="48.67736" lon="7.19651">
        <ele>259.4</ele>
        <time>2020-08-12T07:01:50Z</time>
      </trkpt>
      <trkpt lat="48.67726" lon="7.19653">
        <ele>259.6</ele>
        <time>2020-08-12T07:01:52Z</time>
      </trkpt>
      <trkpt lat="48.67715" lon="7.19655">
        <ele>260.1</ele>
        <time>2020-08-12T07:01:54Z</time>
      </trkpt>
      <trkpt lat="48.67704" lon="7.19659">
        <ele>260.7</ele>
        <time>2020-08-12T07:01:56Z</time>
      </trkpt>
      <trkpt lat="48.67693" lon="7.19663">
        <ele>261</ele>
        <time>2020-08-12T07:01:58Z</time>
      </trkpt>
      <trkpt lat="48.67681" lon="7.19667">
        <ele>261</ele>
        <time>2020-08-12T07:02:00Z</time>
      </trkpt>
      <trkpt lat="48.67669" lon="7.19671">
        <ele>261.8</ele>
        <time>2020-08-12T07:02:02Z</time>
      </trkpt>
      <trkpt lat="48.67658" lon="7.19674">
        <ele>262.8</ele>
        <time>2020-08-12T07:02:04Z</time>
      </trkpt>
      <trkpt lat="48.67647" lon="7.19675">
        <ele>263.3</ele>
        <time>2020-08-12T07:02:06Z</time>
      </trkpt>
      <trkpt lat="48.67636" lon="7.19673">
        <ele>263.2</ele>
        <time>2020-08-12T07:02:08Z</time>
      </trkpt>
      <trkpt lat="48.67626" lon="7.19669">
        <ele>262.9</ele>
        <time>2020-08-12T07:02:10Z</time>
      </trkpt>
      <trkpt lat="48.67616" lon="7.19663">
        <ele>262.8</ele>
        <time>2020-08-12T07:02:12Z</time>
      </trkpt>
      <trkpt lat="48.67606" lon="7.19657">
        <ele>262.7</ele>
        <time>2020-08-12T07:02:14Z</time>
      </trkpt>
      <trkpt lat="48.67596" lon="7.19651">
        <ele>262.6</ele>
        <time>2020-08-12T07:02:16Z</time>
      </trkpt>
      <trkpt lat="48.67588" lon="7.19643">
        <ele>262.1</ele>
        <time>2020-08-12T07:02:18Z</time>
      </trkpt>
      <trkpt lat="48.6758" lon="7.19635">
        <ele>262.1</ele>
        <time>2020-08-12T07:02:20Z</time>
      </trkpt>
      <trkpt lat="48.67573" lon="7.19627">
        <ele>262</ele>
        <time>2020-08-12T07:02:22Z</time>
      </trkpt>
      <trkpt lat="48.67564" lon="7.19617">
        <ele>262</ele>
        <time>2020-08-12T07:02:24Z</time>
      </trkpt>
      <trkpt lat="48.67555" lon="7.19608">
        <ele>261.8</ele>
        <time>2020-08-12T07:02:26Z</time>
      </trkpt>
      <trkpt lat="48.67543" lon="7.19599">
        <ele>261.6</ele>
        <time>2020-08-12T07:02:28Z</time>
      </trkpt>
      <trkpt lat="48.67531" lon="7.19589">
        <ele>261.4</ele>
        <time>2020-08-12T07:02:30Z</time>
      </trkpt>
      <trkpt lat="48.6752" lon="7.1958">
        <ele>261.4</ele>
        <time>2020-08-12T07:02:32Z</time>
      </trkpt>
      <trkpt lat="48.67507" lon="7.19569">
        <ele>261.7</ele>
        <time>2020-08-12T07:02:34Z</time>
      </trkpt>
      <trkpt lat="48.67495" lon="7.19559">
        <ele>261.8</ele>
        <time>2020-08-12T07:02:36Z</time>
      </trkpt>
      <trkpt lat="48.67484" lon="7.19549">
        <ele>261.7</ele>
        <time>2020-08-12T07:02:38Z</time>
      </trkpt>
      <trkpt lat="48.67473" lon="7.19539">
        <ele>261.8</ele>
        <time>2020-08-12T07:02:40Z</time>
      </trkpt>
      <trkpt lat="48.67462" lon="7.19529">
        <ele>261.9</ele>
        <time>2020-08-12T07:02:42Z</time>
      </trkpt>
      <trkpt lat="48.67453" lon="7.19518">
        <ele>261.8</ele>
        <time>2020-08-12T07:02:44Z</time>
      </trkpt>
      <trkpt lat="48.67444" lon="7.19506">
        <ele>261.5</ele>
        <time>2020-08-12T07:02:46Z</time>
      </trkpt>
      <trkpt lat="48.67437" lon="7.19495">
        <ele>261.5</ele>
        <time>2020-08-12T07:02:48Z</time>
      </trkpt>
      <trkpt lat="48.67433" lon="7.19489">
        <ele>261.8</ele>
        <time>2020-08-12T07:02:50Z</time>
      </trkpt>
      <trkpt lat="48.67429" lon="7.19485">
        <ele>262.5</ele>
        <time>2020-08-12T07:02:55Z</time>
      </trkpt>
      <trkpt lat="48.67425" lon="7.19484">
        <ele>262.8</ele>
        <time>2020-08-12T07:02:57Z</time>
      </trkpt>
      <trkpt lat="48.6742" lon="7.19482">
        <ele>262.7</ele>
        <time>2020-08-12T07:02:59Z</time>
      </trkpt>
      <trkpt lat="48.67413" lon="7.19479">
        <ele>262.8</ele>
        <time>2020-08-12T07:03:01Z</time>
      </trkpt>
      <trkpt lat="48.67405" lon="7.19478">
        <ele>262.7</ele>
        <time>2020-08-12T07:03:03Z</time>
      </trkpt>
      <trkpt lat="48.67396" lon="7.19478">
        <ele>263.2</ele>
        <time>2020-08-12T07:03:05Z</time>
      </trkpt>
      <trkpt lat="48.67387" lon="7.19478">
        <ele>263.3</ele>
        <time>2020-08-12T07:03:07Z</time>
      </trkpt>
      <trkpt lat="48.67382" lon="7.19478">
        <ele>263.4</ele>
        <time>2020-08-12T07:03:09Z</time>
      </trkpt>
      <trkpt lat="48.67377" lon="7.19477">
        <ele>263.7</ele>
        <time>2020-08-12T07:03:16Z</time>
      </trkpt>
      <trkpt lat="48.6737" lon="7.19478">
        <ele>263.7</ele>
        <time>2020-08-12T07:03:19Z</time>
      </trkpt>
      <trkpt lat="48.67363" lon="7.1948">
        <ele>263.6</ele>
        <time>2020-08-12T07:03:21Z</time>
      </trkpt>
      <trkpt lat="48.67356" lon="7.19481">
        <ele>263.5</ele>
        <time>2020-08-12T07:03:23Z</time>
      </trkpt>
      <trkpt lat="48.67348" lon="7.19482">
        <ele>263.2</ele>
        <time>2020-08-12T07:03:25Z</time>
      </trkpt>
      <trkpt lat="48.6734" lon="7.19483">
        <ele>262.8</ele>
        <time>2020-08-12T07:03:27Z</time>
      </trkpt>
      <trkpt lat="48.67332" lon="7.19484">
        <ele>262.9</ele>
        <time>2020-08-12T07:03:29Z</time>
      </trkpt>
      <trkpt lat="48.67323" lon="7.19484">
        <ele>262.8</ele>
        <time>2020-08-12T07:03:31Z</time>
      </trkpt>
      <trkpt lat="48.67314" lon="7.19482">
        <ele>262.8</ele>
        <time>2020-08-12T07:03:33Z</time>
      </trkpt>
      <trkpt lat="48.67306" lon="7.19479">
        <ele>263.5</ele>
        <time>2020-08-12T07:03:35Z</time>
      </trkpt>
      <trkpt lat="48.67299" lon="7.19475">
        <ele>264</ele>
        <time>2020-08-12T07:03:37Z</time>
      </trkpt>
      <trkpt lat="48.67293" lon="7.1947">
        <ele>264.8</ele>
        <time>2020-08-12T07:03:39Z</time>
      </trkpt>
      <trkpt lat="48.67288" lon="7.19467">
        <ele>265.2</ele>
        <time>2020-08-12T07:03:41Z</time>
      </trkpt>
      <trkpt lat="48.67283" lon="7.19463">
        <ele>266.5</ele>
        <time>2020-08-12T07:03:43Z</time>
      </trkpt>
      <trkpt lat="48.67279" lon="7.19459">
        <ele>267.9</ele>
        <time>2020-08-12T07:03:45Z</time>
      </trkpt>
      <trkpt lat="48.67275" lon="7.19455">
        <ele>269.2</ele>
        <time>2020-08-12T07:03:47Z</time>
      </trkpt>
      <trkpt lat="48.67269" lon="7.1945">
        <ele>270.1</ele>
        <time>2020-08-12T07:03:49Z</time>
      </trkpt>
      <trkpt lat="48.67264" lon="7.19444">
        <ele>270.8</ele>
        <time>2020-08-12T07:03:51Z</time>
      </trkpt>
      <trkpt lat="48.67259" lon="7.1944">
        <ele>270.8</ele>
        <time>2020-08-12T07:03:53Z</time>
      </trkpt>
      <trkpt lat="48.67252" lon="7.19435">
        <ele>270.9</ele>
        <time>2020-08-12T07:03:55Z</time>
      </trkpt>
      <trkpt lat="48.67245" lon="7.19429">
        <ele>271.2</ele>
        <time>2020-08-12T07:03:57Z</time>
      </trkpt>
      <trkpt lat="48.67238" lon="7.19425">
        <ele>271.4</ele>
        <time>2020-08-12T07:03:59Z</time>
      </trkpt>
      <trkpt lat="48.67231" lon="7.19419">
        <ele>271.6</ele>
        <time>2020-08-12T07:04:01Z</time>
      </trkpt>
      <trkpt lat="48.67223" lon="7.19414">
        <ele>289</ele>
        <time>2020-08-12T07:04:03Z</time>
      </trkpt>
      <trkpt lat="48.67216" lon="7.19411">
        <ele>291.7</ele>
        <time>2020-08-12T07:04:05Z</time>
      </trkpt>
      <trkpt lat="48.67211" lon="7.19411">
        <ele>292.5</ele>
        <time>2020-08-12T07:04:08Z</time>
      </trkpt>
      <trkpt lat="48.67206" lon="7.19412">
        <ele>284.7</ele>
        <time>2020-08-12T07:04:14Z</time>
      </trkpt>
      <trkpt lat="48.67202" lon="7.19408">
        <ele>293.1</ele>
        <time>2020-08-12T07:04:25Z</time>
      </trkpt>
      <trkpt lat="48.67199" lon="7.19404">
        <ele>302.4</ele>
        <time>2020-08-12T07:04:41Z</time>
      </trkpt>
      <trkpt lat="48.67196" lon="7.19398">
        <ele>307.7</ele>
        <time>2020-08-12T07:04:45Z</time>
      </trkpt>
      <trkpt lat="48.67193" lon="7.19391">
        <ele>304</ele>
        <time>2020-08-12T07:04:48Z</time>
      </trkpt>
      <trkpt lat="48.67189" lon="7.19386">
        <ele>300.5</ele>
        <time>2020-08-12T07:04:50Z</time>
      </trkpt>
      <trkpt lat="48.67184" lon="7.1938">
        <ele>297.7</ele>
        <time>2020-08-12T07:04:52Z</time>
      </trkpt>
      <trkpt lat="48.67179" lon="7.19375">
        <ele>295.3</ele>
        <time>2020-08-12T07:04:54Z</time>
      </trkpt>
      <trkpt lat="48.67172" lon="7.19371">
        <ele>293.9</ele>
        <time>2020-08-12T07:04:56Z</time>
      </trkpt>
      <trkpt lat="48.67166" lon="7.19367">
        <ele>292.7</ele>
        <time>2020-08-12T07:04:58Z</time>
      </trkpt>
      <trkpt lat="48.6716" lon="7.19361">
        <ele>292.3</ele>
        <time>2020-08-12T07:05:00Z</time>
      </trkpt>
      <trkpt lat="48.67155" lon="7.19354">
        <ele>292.1</ele>
        <time>2020-08-12T07:05:02Z</time>
      </trkpt>
      <trkpt lat="48.67149" lon="7.19348">
        <ele>292</ele>
        <time>2020-08-12T07:05:04Z</time>
      </trkpt>
      <trkpt lat="48.67143" lon="7.1934">
        <ele>291.9</ele>
        <time>2020-08-12T07:05:06Z</time>
      </trkpt>
      <trkpt lat="48.67137" lon="7.19333">
        <ele>291.7</ele>
        <time>2020-08-12T07:05:08Z</time>
      </trkpt>
      <trkpt lat="48.67131" lon="7.19326">
        <ele>292.1</ele>
        <time>2020-08-12T07:05:10Z</time>
      </trkpt>
      <trkpt lat="48.67125" lon="7.19319">
        <ele>293.4</ele>
        <time>2020-08-12T07:05:12Z</time>
      </trkpt>
      <trkpt lat="48.67119" lon="7.19312">
        <ele>300.4</ele>
        <time>2020-08-12T07:05:14Z</time>
      </trkpt>
      <trkpt lat="48.67112" lon="7.19305">
        <ele>301.2</ele>
        <time>2020-08-12T07:05:16Z</time>
      </trkpt>
      <trkpt lat="48.67105" lon="7.19297">
        <ele>301.2</ele>
        <time>2020-08-12T07:05:18Z</time>
      </trkpt>
      <trkpt lat="48.67099" lon="7.19289">
        <ele>301.7</ele>
        <time>2020-08-12T07:05:20Z</time>
      </trkpt>
      <trkpt lat="48.67093" lon="7.19283">
        <ele>301.5</ele>
        <time>2020-08-12T07:05:22Z</time>
      </trkpt>
      <trkpt lat="48.67087" lon="7.19278">
        <ele>302.1</ele>
        <time>2020-08-12T07:05:24Z</time>
      </trkpt>
      <trkpt lat="48.6708" lon="7.19273">
        <ele>302.6</ele>
        <time>2020-08-12T07:05:26Z</time>
      </trkpt>
      <trkpt lat="48.67074" lon="7.19267">
        <ele>302.9</ele>
        <time>2020-08-12T07:05:28Z</time>
      </trkpt>
      <trkpt lat="48.67069" lon="7.19261">
        <ele>302.6</ele>
        <time>2020-08-12T07:05:30Z</time>
      </trkpt>
      <trkpt lat="48.67065" lon="7.19256">
        <ele>302.4</ele>
        <time>2020-08-12T07:05:32Z</time>
      </trkpt>
      <trkpt lat="48.6706" lon="7.19249">
        <ele>302</ele>
        <time>2020-08-12T07:05:34Z</time>
      </trkpt>
      <trkpt lat="48.67054" lon="7.19241">
        <ele>302.8</ele>
        <time>2020-08-12T07:05:36Z</time>
      </trkpt>
      <trkpt lat="48.67049" lon="7.19233">
        <ele>303.3</ele>
        <time>2020-08-12T07:05:38Z</time>
      </trkpt>
      <trkpt lat="48.67044" lon="7.19225">
        <ele>303.9</ele>
        <time>2020-08-12T07:05:40Z</time>
      </trkpt>
      <trkpt lat="48.67038" lon="7.19216">
        <ele>304.6</ele>
        <time>2020-08-12T07:05:42Z</time>
      </trkpt>
      <trkpt lat="48.67033" lon="7.19207">
        <ele>305.2</ele>
        <time>2020-08-12T07:05:44Z</time>
      </trkpt>
      <trkpt lat="48.67027" lon="7.19198">
        <ele>306.8</ele>
        <time>2020-08-12T07:05:46Z</time>
      </trkpt>
      <trkpt lat="48.67022" lon="7.19188">
        <ele>307.4</ele>
        <time>2020-08-12T07:05:48Z</time>
      </trkpt>
      <trkpt lat="48.67017" lon="7.19178">
        <ele>307.6</ele>
        <time>2020-08-12T07:05:50Z</time>
      </trkpt>
      <trkpt lat="48.67012" lon="7.19168">
        <ele>307.8</ele>
        <time>2020-08-12T07:05:52Z</time>
      </trkpt>
      <trkpt lat="48.67009" lon="7.19157">
        <ele>308.1</ele>
        <time>2020-08-12T07:05:54Z</time>
      </trkpt>
      <trkpt lat="48.67005" lon="7.19145">
        <ele>308.8</ele>
        <time>2020-08-12T07:05:56Z</time>
      </trkpt>
      <trkpt lat="48.67001" lon="7.19132">
        <ele>310</ele>
        <time>2020-08-12T07:05:58Z</time>
      </trkpt>
      <trkpt lat="48.66998" lon="7.1912">
        <ele>311.1</ele>
        <time>2020-08-12T07:06:00Z</time>
      </trkpt>
      <trkpt lat="48.66995" lon="7.19108">
        <ele>312.7</ele>
        <time>2020-08-12T07:06:02Z</time>
      </trkpt>
      <trkpt lat="48.66992" lon="7.19096">
        <ele>314</ele>
        <time>2020-08-12T07:06:04Z</time>
      </trkpt>
      <trkpt lat="48.6699" lon="7.19084">
        <ele>330.6</ele>
        <time>2020-08-12T07:06:06Z</time>
      </trkpt>
      <trkpt lat="48.66989" lon="7.19074">
        <ele>334</ele>
        <time>2020-08-12T07:06:08Z</time>
      </trkpt>
      <trkpt lat="48.66989" lon="7.19064">
        <ele>335.4</ele>
        <time>2020-08-12T07:06:10Z</time>
      </trkpt>
      <trkpt lat="48.66989" lon="7.19054">
        <ele>335.4</ele>
        <time>2020-08-12T07:06:12Z</time>
      </trkpt>
      <trkpt lat="48.66989" lon="7.19043">
        <ele>335.4</ele>
        <time>2020-08-12T07:06:14Z</time>
      </trkpt>
      <trkpt lat="48.66988" lon="7.19032">
        <ele>334</ele>
        <time>2020-08-12T07:06:16Z</time>
      </trkpt>
      <trkpt lat="48.66986" lon="7.19021">
        <ele>332.9</ele>
        <time>2020-08-12T07:06:18Z</time>
      </trkpt>
      <trkpt lat="48.66982" lon="7.19012">
        <ele>332.6</ele>
        <time>2020-08-12T07:06:20Z</time>
      </trkpt>
      <trkpt lat="48.66979" lon="7.19005">
        <ele>331.9</ele>
        <time>2020-08-12T07:06:23Z</time>
      </trkpt>
      <trkpt lat="48.66974" lon="7.19001">
        <ele>340.9</ele>
        <time>2020-08-12T07:06:29Z</time>
      </trkpt>
      <trkpt lat="48.66975" lon="7.19008">
        <ele>338.7</ele>
        <time>2020-08-12T07:06:39Z</time>
      </trkpt>
      <trkpt lat="48.6698" lon="7.19013">
        <ele>337.1</ele>
        <time>2020-08-12T07:06:42Z</time>
      </trkpt>
      <trkpt lat="48.66985" lon="7.19016">
        <ele>336.4</ele>
        <time>2020-08-12T07:06:45Z</time>
      </trkpt>
      <trkpt lat="48.6699" lon="7.1902">
        <ele>336.3</ele>
        <time>2020-08-12T07:06:48Z</time>
      </trkpt>
      <trkpt lat="48.66996" lon="7.19025">
        <ele>334.7</ele>
        <time>2020-08-12T07:06:51Z</time>
      </trkpt>
      <trkpt lat="48.67" lon="7.19029">
        <ele>343</ele>
        <time>2020-08-12T07:06:53Z</time>
      </trkpt>
      <trkpt lat="48.67004" lon="7.19034">
        <ele>348.8</ele>
        <time>2020-08-12T07:06:55Z</time>
      </trkpt>
      <trkpt lat="48.67008" lon="7.19039">
        <ele>353.3</ele>
        <time>2020-08-12T07:06:57Z</time>
      </trkpt>
      <trkpt lat="48.67013" lon="7.19042">
        <ele>350.8</ele>
        <time>2020-08-12T07:06:59Z</time>
      </trkpt>
      <trkpt lat="48.67018" lon="7.19043">
        <ele>347.6</ele>
        <time>2020-08-12T07:07:01Z</time>
      </trkpt>
      <trkpt lat="48.67022" lon="7.19042">
        <ele>340.8</ele>
        <time>2020-08-12T07:07:06Z</time>
      </trkpt>
      <trkpt lat="48.67018" lon="7.19037">
        <ele>334.3</ele>
        <time>2020-08-12T07:07:16Z</time>
      </trkpt>
      <trkpt lat="48.67013" lon="7.19033">
        <ele>332.7</ele>
        <time>2020-08-12T07:07:18Z</time>
      </trkpt>
      <trkpt lat="48.67007" lon="7.19026">
        <ele>331.9</ele>
        <time>2020-08-12T07:07:20Z</time>
      </trkpt>
      <trkpt lat="48.66999" lon="7.19019">
        <ele>331.1</ele>
        <time>2020-08-12T07:07:22Z</time>
      </trkpt>
      <trkpt lat="48.66992" lon="7.19011">
        <ele>330</ele>
        <time>2020-08-12T07:07:24Z</time>
      </trkpt>
      <trkpt lat="48.66987" lon="7.19001">
        <ele>329.6</ele>
        <time>2020-08-12T07:07:26Z</time>
      </trkpt>
      <trkpt lat="48.66983" lon="7.18991">
        <ele>329.5</ele>
        <time>2020-08-12T07:07:28Z</time>
      </trkpt>
      <trkpt lat="48.66982" lon="7.18985">
        <ele>339.1</ele>
        <time>2020-08-12T07:07:30Z</time>
      </trkpt>
      <trkpt lat="48.66979" lon="7.18978">
        <ele>340.6</ele>
        <time>2020-08-12T07:07:33Z</time>
      </trkpt>
      <trkpt lat="48.66977" lon="7.18971">
        <ele>339.3</ele>
        <time>2020-08-12T07:07:38Z</time>
      </trkpt>
      <trkpt lat="48.66977" lon="7.18963">
        <ele>337.6</ele>
        <time>2020-08-12T07:07:43Z</time>
      </trkpt>
      <trkpt lat="48.66976" lon="7.18956">
        <ele>336.9</ele>
        <time>2020-08-12T07:07:47Z</time>
      </trkpt>
      <trkpt lat="48.66973" lon="7.18949">
        <ele>337.3</ele>
        <time>2020-08-12T07:07:51Z</time>
      </trkpt>
      <trkpt lat="48.6697" lon="7.18943">
        <ele>339.1</ele>
        <time>2020-08-12T07:07:56Z</time>
      </trkpt>
      <trkpt lat="48.66971" lon="7.18935">
        <ele>340.3</ele>
        <time>2020-08-12T07:08:01Z</time>
      </trkpt>
      <trkpt lat="48.66973" lon="7.18927">
        <ele>341.5</ele>
        <time>2020-08-12T07:08:07Z</time>
      </trkpt>
      <trkpt lat="48.66975" lon="7.18921">
        <ele>342</ele>
        <time>2020-08-12T07:08:11Z</time>
      </trkpt>
      <trkpt lat="48.66974" lon="7.18913">
        <ele>342.4</ele>
        <time>2020-08-12T07:08:15Z</time>
      </trkpt>
      <trkpt lat="48.66971" lon="7.18907">
        <ele>344.1</ele>
        <time>2020-08-12T07:08:20Z</time>
      </trkpt>
      <trkpt lat="48.66969" lon="7.189">
        <ele>346.4</ele>
        <time>2020-08-12T07:08:25Z</time>
      </trkpt>
      <trkpt lat="48.6697" lon="7.18892">
        <ele>348.3</ele>
        <time>2020-08-12T07:08:31Z</time>
      </trkpt>
      <trkpt lat="48.66967" lon="7.18885">
        <ele>355.8</ele>
        <time>2020-08-12T07:08:36Z</time>
      </trkpt>
      <trkpt lat="48.66965" lon="7.18879">
        <ele>357.1</ele>
        <time>2020-08-12T07:08:40Z</time>
      </trkpt>
      <trkpt lat="48.66962" lon="7.18872">
        <ele>358.1</ele>
        <time>2020-08-12T07:08:45Z</time>
      </trkpt>
      <trkpt lat="48.66961" lon="7.18865">
        <ele>358.3</ele>
        <time>2020-08-12T07:08:50Z</time>
      </trkpt>
      <trkpt lat="48.66959" lon="7.18858">
        <ele>360</ele>
        <time>2020-08-12T07:08:55Z</time>
      </trkpt>
      <trkpt lat="48.66957" lon="7.1885">
        <ele>360.6</ele>
        <time>2020-08-12T07:08:59Z</time>
      </trkpt>
      <trkpt lat="48.66954" lon="7.18844">
        <ele>362.4</ele>
        <time>2020-08-12T07:09:03Z</time>
      </trkpt>
      <trkpt lat="48.6695" lon="7.18839">
        <ele>364.3</ele>
        <time>2020-08-12T07:09:07Z</time>
      </trkpt>
      <trkpt lat="48.66947" lon="7.18833">
        <ele>366</ele>
        <time>2020-08-12T07:09:11Z</time>
      </trkpt>
      <trkpt lat="48.66944" lon="7.18828">
        <ele>368.8</ele>
        <time>2020-08-12T07:09:15Z</time>
      </trkpt>
      <trkpt lat="48.66942" lon="7.18821">
        <ele>371.1</ele>
        <time>2020-08-12T07:09:19Z</time>
      </trkpt>
      <trkpt lat="48.66941" lon="7.18815">
        <ele>371.1</ele>
        <time>2020-08-12T07:09:23Z</time>
      </trkpt>
      <trkpt lat="48.6694" lon="7.18807">
        <ele>370.1</ele>
        <time>2020-08-12T07:09:27Z</time>
      </trkpt>
      <trkpt lat="48.6694" lon="7.188">
        <ele>371.2</ele>
        <time>2020-08-12T07:09:33Z</time>
      </trkpt>
      <trkpt lat="48.66939" lon="7.18793">
        <ele>372.5</ele>
        <time>2020-08-12T07:09:38Z</time>
      </trkpt>
      <trkpt lat="48.66936" lon="7.18787">
        <ele>374.8</ele>
        <time>2020-08-12T07:09:43Z</time>
      </trkpt>
      <trkpt lat="48.66934" lon="7.18779">
        <ele>376.7</ele>
        <time>2020-08-12T07:09:49Z</time>
      </trkpt>
      <trkpt lat="48.66933" lon="7.18771">
        <ele>377.2</ele>
        <time>2020-08-12T07:09:54Z</time>
      </trkpt>
      <trkpt lat="48.66932" lon="7.18764">
        <ele>377.4</ele>
        <time>2020-08-12T07:09:59Z</time>
      </trkpt>
      <trkpt lat="48.66931" lon="7.18757">
        <ele>377.3</ele>
        <time>2020-08-12T07:10:03Z</time>
      </trkpt>
      <trkpt lat="48.6693" lon="7.18749">
        <ele>378.2</ele>
        <time>2020-08-12T07:10:08Z</time>
      </trkpt>
      <trkpt lat="48.6693" lon="7.18742">
        <ele>378.6</ele>
        <time>2020-08-12T07:10:13Z</time>
      </trkpt>
      <trkpt lat="48.66928" lon="7.18734">
        <ele>379.9</ele>
        <time>2020-08-12T07:10:19Z</time>
      </trkpt>
      <trkpt lat="48.66924" lon="7.18728">
        <ele>382.8</ele>
        <time>2020-08-12T07:10:25Z</time>
      </trkpt>
      <trkpt lat="48.66921" lon="7.18723">
        <ele>383.9</ele>
        <time>2020-08-12T07:10:29Z</time>
      </trkpt>
      <trkpt lat="48.66917" lon="7.18718">
        <ele>384.7</ele>
        <time>2020-08-12T07:10:32Z</time>
      </trkpt>
      <trkpt lat="48.66914" lon="7.18712">
        <ele>384.6</ele>
        <time>2020-08-12T07:10:36Z</time>
      </trkpt>
      <trkpt lat="48.66911" lon="7.18706">
        <ele>385.2</ele>
        <time>2020-08-12T07:10:40Z</time>
      </trkpt>
      <trkpt lat="48.66908" lon="7.187">
        <ele>386.1</ele>
        <time>2020-08-12T07:10:44Z</time>
      </trkpt>
      <trkpt lat="48.66905" lon="7.18693">
        <ele>387.3</ele>
        <time>2020-08-12T07:10:49Z</time>
      </trkpt>
      <trkpt lat="48.66902" lon="7.18686">
        <ele>386.6</ele>
        <time>2020-08-12T07:10:54Z</time>
      </trkpt>
      <trkpt lat="48.66899" lon="7.18679">
        <ele>385.9</ele>
        <time>2020-08-12T07:10:59Z</time>
      </trkpt>
      <trkpt lat="48.66897" lon="7.18673">
        <ele>385.6</ele>
        <time>2020-08-12T07:11:03Z</time>
      </trkpt>
      <trkpt lat="48.66895" lon="7.18666">
        <ele>386</ele>
        <time>2020-08-12T07:11:08Z</time>
      </trkpt>
      <trkpt lat="48.66892" lon="7.18658">
        <ele>386.2</ele>
        <time>2020-08-12T07:11:13Z</time>
      </trkpt>
      <trkpt lat="48.6689" lon="7.18653">
        <ele>386.5</ele>
        <time>2020-08-12T07:11:17Z</time>
      </trkpt>
      <trkpt lat="48.66888" lon="7.18647">
        <ele>387.3</ele>
        <time>2020-08-12T07:11:22Z</time>
      </trkpt>
      <trkpt lat="48.66884" lon="7.18641">
        <ele>388.9</ele>
        <time>2020-08-12T07:11:28Z</time>
      </trkpt>
      <trkpt lat="48.66881" lon="7.18636">
        <ele>390</ele>
        <time>2020-08-12T07:11:32Z</time>
      </trkpt>
      <trkpt lat="48.66878" lon="7.1863">
        <ele>389.7</ele>
        <time>2020-08-12T07:11:36Z</time>
      </trkpt>
      <trkpt lat="48.66877" lon="7.18623">
        <ele>390</ele>
        <time>2020-08-12T07:11:40Z</time>
      </trkpt>
      <trkpt lat="48.66876" lon="7.18616">
        <ele>390.2</ele>
        <time>2020-08-12T07:11:44Z</time>
      </trkpt>
      <trkpt lat="48.66876" lon="7.18608">
        <ele>391.3</ele>
        <time>2020-08-12T07:11:50Z</time>
      </trkpt>
      <trkpt lat="48.66876" lon="7.18601">
        <ele>392.3</ele>
        <time>2020-08-12T07:11:54Z</time>
      </trkpt>
      <trkpt lat="48.66876" lon="7.18593">
        <ele>393.5</ele>
        <time>2020-08-12T07:11:59Z</time>
      </trkpt>
      <trkpt lat="48.66875" lon="7.18586">
        <ele>395</ele>
        <time>2020-08-12T07:12:04Z</time>
      </trkpt>
      <trkpt lat="48.66876" lon="7.18579">
        <ele>395.6</ele>
        <time>2020-08-12T07:12:09Z</time>
      </trkpt>
      <trkpt lat="48.66878" lon="7.18572">
        <ele>396.2</ele>
        <time>2020-08-12T07:12:14Z</time>
      </trkpt>
      <trkpt lat="48.66879" lon="7.18565">
        <ele>396.8</ele>
        <time>2020-08-12T07:12:19Z</time>
      </trkpt>
      <trkpt lat="48.66874" lon="7.18562">
        <ele>396.3</ele>
        <time>2020-08-12T07:12:38Z</time>
      </trkpt>
      <trkpt lat="48.66869" lon="7.1856">
        <ele>395.9</ele>
        <time>2020-08-12T07:12:42Z</time>
      </trkpt>
      <trkpt lat="48.66865" lon="7.18557">
        <ele>395.6</ele>
        <time>2020-08-12T07:12:46Z</time>
      </trkpt>
      <trkpt lat="48.6686" lon="7.18554">
        <ele>395.6</ele>
        <time>2020-08-12T07:12:50Z</time>
      </trkpt>
      <trkpt lat="48.66856" lon="7.18552">
        <ele>396.1</ele>
        <time>2020-08-12T07:12:55Z</time>
      </trkpt>
      <trkpt lat="48.66851" lon="7.18546">
        <ele>398.1</ele>
        <time>2020-08-12T07:13:10Z</time>
      </trkpt>
      <trkpt lat="48.66849" lon="7.18538">
        <ele>399.5</ele>
        <time>2020-08-12T07:13:13Z</time>
      </trkpt>
      <trkpt lat="48.66846" lon="7.1853">
        <ele>400.6</ele>
        <time>2020-08-12T07:13:16Z</time>
      </trkpt>
      <trkpt lat="48.66843" lon="7.18525">
        <ele>401</ele>
        <time>2020-08-12T07:13:18Z</time>
      </trkpt>
      <trkpt lat="48.66838" lon="7.18517">
        <ele>400.9</ele>
        <time>2020-08-12T07:13:21Z</time>
      </trkpt>
      <trkpt lat="48.66833" lon="7.18512">
        <ele>400.2</ele>
        <time>2020-08-12T07:13:24Z</time>
      </trkpt>
      <trkpt lat="48.66829" lon="7.18509">
        <ele>401</ele>
        <time>2020-08-12T07:13:26Z</time>
      </trkpt>
      <trkpt lat="48.66825" lon="7.18506">
        <ele>400.6</ele>
        <time>2020-08-12T07:13:28Z</time>
      </trkpt>
      <trkpt lat="48.6682" lon="7.18502">
        <ele>400.5</ele>
        <time>2020-08-12T07:13:30Z</time>
      </trkpt>
      <trkpt lat="48.66815" lon="7.18499">
        <ele>400</ele>
        <time>2020-08-12T07:13:32Z</time>
      </trkpt>
      <trkpt lat="48.6681" lon="7.18497">
        <ele>400.1</ele>
        <time>2020-08-12T07:13:34Z</time>
      </trkpt>
      <trkpt lat="48.66805" lon="7.18494">
        <ele>400.6</ele>
        <time>2020-08-12T07:13:36Z</time>
      </trkpt>
      <trkpt lat="48.668" lon="7.18491">
        <ele>401.2</ele>
        <time>2020-08-12T07:13:38Z</time>
      </trkpt>
      <trkpt lat="48.66794" lon="7.18488">
        <ele>401.8</ele>
        <time>2020-08-12T07:13:40Z</time>
      </trkpt>
      <trkpt lat="48.6679" lon="7.18485">
        <ele>402.4</ele>
        <time>2020-08-12T07:13:42Z</time>
      </trkpt>
      <trkpt lat="48.66785" lon="7.1848">
        <ele>398.5</ele>
        <time>2020-08-12T07:13:45Z</time>
      </trkpt>
      <trkpt lat="48.6678" lon="7.18477">
        <ele>403.7</ele>
        <time>2020-08-12T07:13:54Z</time>
      </trkpt>
      <trkpt lat="48.66775" lon="7.18476">
        <ele>407.3</ele>
        <time>2020-08-12T07:13:58Z</time>
      </trkpt>
      <trkpt lat="48.6677" lon="7.18474">
        <ele>409</ele>
        <time>2020-08-12T07:14:00Z</time>
      </trkpt>
      <trkpt lat="48.66765" lon="7.18471">
        <ele>409.9</ele>
        <time>2020-08-12T07:14:02Z</time>
      </trkpt>
      <trkpt lat="48.66759" lon="7.18467">
        <ele>411.2</ele>
        <time>2020-08-12T07:14:04Z</time>
      </trkpt>
      <trkpt lat="48.66754" lon="7.18464">
        <ele>411.7</ele>
        <time>2020-08-12T07:14:06Z</time>
      </trkpt>
      <trkpt lat="48.66748" lon="7.1846">
        <ele>413.2</ele>
        <time>2020-08-12T07:14:08Z</time>
      </trkpt>
      <trkpt lat="48.66742" lon="7.18455">
        <ele>414.6</ele>
        <time>2020-08-12T07:14:10Z</time>
      </trkpt>
      <trkpt lat="48.66735" lon="7.18452">
        <ele>415.6</ele>
        <time>2020-08-12T07:14:12Z</time>
      </trkpt>
      <trkpt lat="48.66729" lon="7.18449">
        <ele>417.4</ele>
        <time>2020-08-12T07:14:14Z</time>
      </trkpt>
      <trkpt lat="48.66723" lon="7.18445">
        <ele>418</ele>
        <time>2020-08-12T07:14:16Z</time>
      </trkpt>
      <trkpt lat="48.66717" lon="7.18441">
        <ele>418.4</ele>
        <time>2020-08-12T07:14:18Z</time>
      </trkpt>
      <trkpt lat="48.66712" lon="7.18437">
        <ele>419.1</ele>
        <time>2020-08-12T07:14:20Z</time>
      </trkpt>
      <trkpt lat="48.66707" lon="7.18432">
        <ele>419.5</ele>
        <time>2020-08-12T07:14:22Z</time>
      </trkpt>
      <trkpt lat="48.66704" lon="7.18427">
        <ele>419.3</ele>
        <time>2020-08-12T07:14:24Z</time>
      </trkpt>
      <trkpt lat="48.66702" lon="7.18421">
        <ele>418.8</ele>
        <time>2020-08-12T07:14:26Z</time>
      </trkpt>
      <trkpt lat="48.66699" lon="7.18416">
        <ele>418.6</ele>
        <time>2020-08-12T07:14:28Z</time>
      </trkpt>
      <trkpt lat="48.66694" lon="7.18412">
        <ele>418.9</ele>
        <time>2020-08-12T07:14:30Z</time>
      </trkpt>
      <trkpt lat="48.6669" lon="7.1841">
        <ele>419.4</ele>
        <time>2020-08-12T07:14:32Z</time>
      </trkpt>
      <trkpt lat="48.66684" lon="7.1841">
        <ele>419.7</ele>
        <time>2020-08-12T07:14:34Z</time>
      </trkpt>
      <trkpt lat="48.66679" lon="7.18409">
        <ele>420</ele>
        <time>2020-08-12T07:14:36Z</time>
      </trkpt>
      <trkpt lat="48.66673" lon="7.18408">
        <ele>420.6</ele>
        <time>2020-08-12T07:14:38Z</time>
      </trkpt>
      <trkpt lat="48.66667" lon="7.18408">
        <ele>420.6</ele>
        <time>2020-08-12T07:14:40Z</time>
      </trkpt>
      <trkpt lat="48.6666" lon="7.18407">
        <ele>421.1</ele>
        <time>2020-08-12T07:14:42Z</time>
      </trkpt>
      <trkpt lat="48.66653" lon="7.18405">
        <ele>421.2</ele>
        <time>2020-08-12T07:14:44Z</time>
      </trkpt>
      <trkpt lat="48.66647" lon="7.18402">
        <ele>421.3</ele>
        <time>2020-08-12T07:14:46Z</time>
      </trkpt>
      <trkpt lat="48.66641" lon="7.18399">
        <ele>421.6</ele>
        <time>2020-08-12T07:14:48Z</time>
      </trkpt>
      <trkpt lat="48.66634" lon="7.18397">
        <ele>422</ele>
        <time>2020-08-12T07:14:50Z</time>
      </trkpt>
      <trkpt lat="48.66627" lon="7.18397">
        <ele>422.7</ele>
        <time>2020-08-12T07:14:52Z</time>
      </trkpt>
      <trkpt lat="48.66621" lon="7.18397">
        <ele>423.4</ele>
        <time>2020-08-12T07:14:54Z</time>
      </trkpt>
      <trkpt lat="48.66616" lon="7.18398">
        <ele>424.2</ele>
        <time>2020-08-12T07:14:56Z</time>
      </trkpt>
      <trkpt lat="48.6661" lon="7.18399">
        <ele>425</ele>
        <time>2020-08-12T07:14:58Z</time>
      </trkpt>
      <trkpt lat="48.66605" lon="7.184">
        <ele>425.7</ele>
        <time>2020-08-12T07:15:00Z</time>
      </trkpt>
      <trkpt lat="48.66599" lon="7.184">
        <ele>426.4</ele>
        <time>2020-08-12T07:15:02Z</time>
      </trkpt>
      <trkpt lat="48.66592" lon="7.18401">
        <ele>427.3</ele>
        <time>2020-08-12T07:15:04Z</time>
      </trkpt>
      <trkpt lat="48.66585" lon="7.18401">
        <ele>428.5</ele>
        <time>2020-08-12T07:15:06Z</time>
      </trkpt>
      <trkpt lat="48.66579" lon="7.18402">
        <ele>429.6</ele>
        <time>2020-08-12T07:15:08Z</time>
      </trkpt>
      <trkpt lat="48.66571" lon="7.18401">
        <ele>430.3</ele>
        <time>2020-08-12T07:15:10Z</time>
      </trkpt>
      <trkpt lat="48.66563" lon="7.18402">
        <ele>431.9</ele>
        <time>2020-08-12T07:15:12Z</time>
      </trkpt>
      <trkpt lat="48.66556" lon="7.18405">
        <ele>432.1</ele>
        <time>2020-08-12T07:15:14Z</time>
      </trkpt>
      <trkpt lat="48.66548" lon="7.18407">
        <ele>433</ele>
        <time>2020-08-12T07:15:16Z</time>
      </trkpt>
      <trkpt lat="48.66541" lon="7.18408">
        <ele>434</ele>
        <time>2020-08-12T07:15:18Z</time>
      </trkpt>
      <trkpt lat="48.66534" lon="7.18409">
        <ele>435.4</ele>
        <time>2020-08-12T07:15:20Z</time>
      </trkpt>
      <trkpt lat="48.66528" lon="7.18411">
        <ele>436.6</ele>
        <time>2020-08-12T07:15:22Z</time>
      </trkpt>
      <trkpt lat="48.66521" lon="7.18412">
        <ele>437.9</ele>
        <time>2020-08-12T07:15:24Z</time>
      </trkpt>
      <trkpt lat="48.66516" lon="7.18415">
        <ele>438.9</ele>
        <time>2020-08-12T07:15:26Z</time>
      </trkpt>
      <trkpt lat="48.6651" lon="7.18418">
        <ele>440.1</ele>
        <time>2020-08-12T07:15:28Z</time>
      </trkpt>
      <trkpt lat="48.66506" lon="7.18421">
        <ele>441</ele>
        <time>2020-08-12T07:15:30Z</time>
      </trkpt>
      <trkpt lat="48.665" lon="7.18421">
        <ele>442</ele>
        <time>2020-08-12T07:15:32Z</time>
      </trkpt>
      <trkpt lat="48.66493" lon="7.1842">
        <ele>442.9</ele>
        <time>2020-08-12T07:15:34Z</time>
      </trkpt>
      <trkpt lat="48.66486" lon="7.18419">
        <ele>443.7</ele>
        <time>2020-08-12T07:15:36Z</time>
      </trkpt>
      <trkpt lat="48.6648" lon="7.18417">
        <ele>444.6</ele>
        <time>2020-08-12T07:15:38Z</time>
      </trkpt>
      <trkpt lat="48.66474" lon="7.18416">
        <ele>445.1</ele>
        <time>2020-08-12T07:15:40Z</time>
      </trkpt>
      <trkpt lat="48.66468" lon="7.18415">
        <ele>444.6</ele>
        <time>2020-08-12T07:15:42Z</time>
      </trkpt>
      <trkpt lat="48.66462" lon="7.18413">
        <ele>444.9</ele>
        <time>2020-08-12T07:15:44Z</time>
      </trkpt>
      <trkpt lat="48.66456" lon="7.18411">
        <ele>445.4</ele>
        <time>2020-08-12T07:15:46Z</time>
      </trkpt>
      <trkpt lat="48.6645" lon="7.18409">
        <ele>445</ele>
        <time>2020-08-12T07:15:48Z</time>
      </trkpt>
      <trkpt lat="48.66443" lon="7.18406">
        <ele>445.1</ele>
        <time>2020-08-12T07:15:50Z</time>
      </trkpt>
      <trkpt lat="48.66436" lon="7.18403">
        <ele>445.1</ele>
        <time>2020-08-12T07:15:52Z</time>
      </trkpt>
      <trkpt lat="48.66428" lon="7.18399">
        <ele>444.9</ele>
        <time>2020-08-12T07:15:54Z</time>
      </trkpt>
      <trkpt lat="48.6642" lon="7.18394">
        <ele>444.8</ele>
        <time>2020-08-12T07:15:56Z</time>
      </trkpt>
      <trkpt lat="48.66411" lon="7.18389">
        <ele>444.7</ele>
        <time>2020-08-12T07:15:58Z</time>
      </trkpt>
      <trkpt lat="48.66402" lon="7.18385">
        <ele>444.6</ele>
        <time>2020-08-12T07:16:00Z</time>
      </trkpt>
      <trkpt lat="48.66394" lon="7.18381">
        <ele>444.6</ele>
        <time>2020-08-12T07:16:02Z</time>
      </trkpt>
      <trkpt lat="48.66386" lon="7.18378">
        <ele>444.5</ele>
        <time>2020-08-12T07:16:04Z</time>
      </trkpt>
      <trkpt lat="48.66377" lon="7.18375">
        <ele>444.6</ele>
        <time>2020-08-12T07:16:06Z</time>
      </trkpt>
      <trkpt lat="48.66368" lon="7.18372">
        <ele>444.8</ele>
        <time>2020-08-12T07:16:08Z</time>
      </trkpt>
      <trkpt lat="48.6636" lon="7.1837">
        <ele>445</ele>
        <time>2020-08-12T07:16:10Z</time>
      </trkpt>
      <trkpt lat="48.66351" lon="7.18367">
        <ele>444.9</ele>
        <time>2020-08-12T07:16:12Z</time>
      </trkpt>
      <trkpt lat="48.66344" lon="7.18364">
        <ele>445.1</ele>
        <time>2020-08-12T07:16:14Z</time>
      </trkpt>
      <trkpt lat="48.66336" lon="7.1836">
        <ele>445.3</ele>
        <time>2020-08-12T07:16:16Z</time>
      </trkpt>
      <trkpt lat="48.66328" lon="7.18355">
        <ele>445.1</ele>
        <time>2020-08-12T07:16:18Z</time>
      </trkpt>
      <trkpt lat="48.66319" lon="7.18349">
        <ele>445.1</ele>
        <time>2020-08-12T07:16:20Z</time>
      </trkpt>
      <trkpt lat="48.6631" lon="7.18344">
        <ele>445.9</ele>
        <time>2020-08-12T07:16:22Z</time>
      </trkpt>
      <trkpt lat="48.66303" lon="7.18339">
        <ele>445.7</ele>
        <time>2020-08-12T07:16:24Z</time>
      </trkpt>
      <trkpt lat="48.66295" lon="7.18333">
        <ele>446.3</ele>
        <time>2020-08-12T07:16:26Z</time>
      </trkpt>
      <trkpt lat="48.66288" lon="7.18328">
        <ele>446.4</ele>
        <time>2020-08-12T07:16:28Z</time>
      </trkpt>
      <trkpt lat="48.6628" lon="7.18322">
        <ele>446.5</ele>
        <time>2020-08-12T07:16:30Z</time>
      </trkpt>
      <trkpt lat="48.66272" lon="7.18318">
        <ele>447.1</ele>
        <time>2020-08-12T07:16:32Z</time>
      </trkpt>
      <trkpt lat="48.66264" lon="7.18313">
        <ele>447.8</ele>
        <time>2020-08-12T07:16:34Z</time>
      </trkpt>
      <trkpt lat="48.66257" lon="7.18309">
        <ele>448</ele>
        <time>2020-08-12T07:16:36Z</time>
      </trkpt>
      <trkpt lat="48.66249" lon="7.18306">
        <ele>448.3</ele>
        <time>2020-08-12T07:16:38Z</time>
      </trkpt>
      <trkpt lat="48.66241" lon="7.18302">
        <ele>448.6</ele>
        <time>2020-08-12T07:16:40Z</time>
      </trkpt>
      <trkpt lat="48.66235" lon="7.18298">
        <ele>449</ele>
        <time>2020-08-12T07:16:42Z</time>
      </trkpt>
      <trkpt lat="48.66229" lon="7.18295">
        <ele>449.2</ele>
        <time>2020-08-12T07:16:44Z</time>
      </trkpt>
      <trkpt lat="48.66224" lon="7.18292">
        <ele>449.4</ele>
        <time>2020-08-12T07:16:46Z</time>
      </trkpt>
      <trkpt lat="48.66218" lon="7.18288">
        <ele>449.4</ele>
        <time>2020-08-12T07:16:48Z</time>
      </trkpt>
      <trkpt lat="48.66214" lon="7.18286">
        <ele>449.5</ele>
        <time>2020-08-12T07:16:54Z</time>
      </trkpt>
      <trkpt lat="48.66208" lon="7.18282">
        <ele>450.8</ele>
        <time>2020-08-12T07:17:06Z</time>
      </trkpt>
      <trkpt lat="48.66204" lon="7.18279">
        <ele>450.8</ele>
        <time>2020-08-12T07:17:08Z</time>
      </trkpt>
      <trkpt lat="48.662" lon="7.18275">
        <ele>450.9</ele>
        <time>2020-08-12T07:17:10Z</time>
      </trkpt>
      <trkpt lat="48.66196" lon="7.18271">
        <ele>450.9</ele>
        <time>2020-08-12T07:17:12Z</time>
      </trkpt>
      <trkpt lat="48.66192" lon="7.18267">
        <ele>451.3</ele>
        <time>2020-08-12T07:17:14Z</time>
      </trkpt>
      <trkpt lat="48.66188" lon="7.18263">
        <ele>451.7</ele>
        <time>2020-08-12T07:17:16Z</time>
      </trkpt>
      <trkpt lat="48.66184" lon="7.18259">
        <ele>451.7</ele>
        <time>2020-08-12T07:17:18Z</time>
      </trkpt>
      <trkpt lat="48.6618" lon="7.18253">
        <ele>452</ele>
        <time>2020-08-12T07:17:20Z</time>
      </trkpt>
      <trkpt lat="48.66177" lon="7.18246">
        <ele>452.3</ele>
        <time>2020-08-12T07:17:23Z</time>
      </trkpt>
      <trkpt lat="48.66173" lon="7.1824">
        <ele>452.5</ele>
        <time>2020-08-12T07:17:26Z</time>
      </trkpt>
      <trkpt lat="48.66169" lon="7.18235">
        <ele>452</ele>
        <time>2020-08-12T07:17:34Z</time>
      </trkpt>
      <trkpt lat="48.66166" lon="7.18228">
        <ele>452.2</ele>
        <time>2020-08-12T07:17:36Z</time>
      </trkpt>
      <trkpt lat="48.66163" lon="7.18221">
        <ele>452.3</ele>
        <time>2020-08-12T07:17:38Z</time>
      </trkpt>
      <trkpt lat="48.66159" lon="7.18212">
        <ele>452.5</ele>
        <time>2020-08-12T07:17:40Z</time>
      </trkpt>
      <trkpt lat="48.66155" lon="7.18203">
        <ele>452.7</ele>
        <time>2020-08-12T07:17:42Z</time>
      </trkpt>
      <trkpt lat="48.66151" lon="7.18193">
        <ele>452.5</ele>
        <time>2020-08-12T07:17:44Z</time>
      </trkpt>
      <trkpt lat="48.66148" lon="7.18183">
        <ele>452.3</ele>
        <time>2020-08-12T07:17:46Z</time>
      </trkpt>
      <trkpt lat="48.66145" lon="7.18173">
        <ele>452</ele>
        <time>2020-08-12T07:17:48Z</time>
      </trkpt>
      <trkpt lat="48.66142" lon="7.18163">
        <ele>452</ele>
        <time>2020-08-12T07:17:50Z</time>
      </trkpt>
      <trkpt lat="48.66139" lon="7.18153">
        <ele>451.8</ele>
        <time>2020-08-12T07:17:52Z</time>
      </trkpt>
      <trkpt lat="48.66133" lon="7.1814">
        <ele>451.8</ele>
        <time>2020-08-12T07:17:54Z</time>
      </trkpt>
      <trkpt lat="48.66127" lon="7.18128">
        <ele>451.9</ele>
        <time>2020-08-12T07:17:56Z</time>
      </trkpt>
      <trkpt lat="48.66123" lon="7.18115">
        <ele>452</ele>
        <time>2020-08-12T07:17:58Z</time>
      </trkpt>
      <trkpt lat="48.66119" lon="7.18101">
        <ele>452.6</ele>
        <time>2020-08-12T07:18:00Z</time>
      </trkpt>
      <trkpt lat="48.66116" lon="7.18087">
        <ele>453.1</ele>
        <time>2020-08-12T07:18:02Z</time>
      </trkpt>
      <trkpt lat="48.66112" lon="7.18073">
        <ele>453.4</ele>
        <time>2020-08-12T07:18:04Z</time>
      </trkpt>
      <trkpt lat="48.6611" lon="7.1806">
        <ele>453.7</ele>
        <time>2020-08-12T07:18:06Z</time>
      </trkpt>
      <trkpt lat="48.66107" lon="7.18046">
        <ele>454.1</ele>
        <time>2020-08-12T07:18:08Z</time>
      </trkpt>
      <trkpt lat="48.66104" lon="7.18032">
        <ele>454.7</ele>
        <time>2020-08-12T07:18:10Z</time>
      </trkpt>
      <trkpt lat="48.66101" lon="7.18019">
        <ele>455.5</ele>
        <time>2020-08-12T07:18:12Z</time>
      </trkpt>
      <trkpt lat="48.66098" lon="7.18006">
        <ele>455.9</ele>
        <time>2020-08-12T07:18:14Z</time>
      </trkpt>
      <trkpt lat="48.66095" lon="7.17994">
        <ele>456.6</ele>
        <time>2020-08-12T07:18:16Z</time>
      </trkpt>
      <trkpt lat="48.66092" lon="7.17981">
        <ele>457.2</ele>
        <time>2020-08-12T07:18:18Z</time>
      </trkpt>
      <trkpt lat="48.6609" lon="7.17969">
        <ele>457.2</ele>
        <time>2020-08-12T07:18:20Z</time>
      </trkpt>
      <trkpt lat="48.66087" lon="7.17956">
        <ele>457.3</ele>
        <time>2020-08-12T07:18:22Z</time>
      </trkpt>
      <trkpt lat="48.66086" lon="7.17943">
        <ele>457.1</ele>
        <time>2020-08-12T07:18:24Z</time>
      </trkpt>
      <trkpt lat="48.66083" lon="7.17929">
        <ele>457.5</ele>
        <time>2020-08-12T07:18:26Z</time>
      </trkpt>
      <trkpt lat="48.6608" lon="7.17915">
        <ele>457.9</ele>
        <time>2020-08-12T07:18:28Z</time>
      </trkpt>
      <trkpt lat="48.66077" lon="7.17901">
        <ele>457.9</ele>
        <time>2020-08-12T07:18:30Z</time>
      </trkpt>
      <trkpt lat="48.66076" lon="7.17887">
        <ele>458.4</ele>
        <time>2020-08-12T07:18:32Z</time>
      </trkpt>
      <trkpt lat="48.66075" lon="7.17873">
        <ele>458.7</ele>
        <time>2020-08-12T07:18:34Z</time>
      </trkpt>
      <trkpt lat="48.66075" lon="7.17858">
        <ele>458.8</ele>
        <time>2020-08-12T07:18:36Z</time>
      </trkpt>
      <trkpt lat="48.66076" lon="7.17842">
        <ele>459</ele>
        <time>2020-08-12T07:18:38Z</time>
      </trkpt>
      <trkpt lat="48.66078" lon="7.17827">
        <ele>459.5</ele>
        <time>2020-08-12T07:18:40Z</time>
      </trkpt>
      <trkpt lat="48.66078" lon="7.17811">
        <ele>459.7</ele>
        <time>2020-08-12T07:18:42Z</time>
      </trkpt>
      <trkpt lat="48.6608" lon="7.17796">
        <ele>459.2</ele>
        <time>2020-08-12T07:18:44Z</time>
      </trkpt>
      <trkpt lat="48.66085" lon="7.17781">
        <ele>459.7</ele>
        <time>2020-08-12T07:18:46Z</time>
      </trkpt>
    </trkseg>
  </trk>
</gpx>